<?xml version="1.0" encoding="UTF-8" standalone="no" ?>
<gpx xmlns="http://www.topografix.com/GPX/1/1" xmlns:xsi="http://www.w3.org/2001/XMLSchema-instance" xsi:schemaLocation="http://www.topografix.com/GPX/1/1 http://www.topografix.com/GPX/1/1/gpx.xsd" version="1.1" creator="VisuGPX - https://www.visugpx.com">
  <metadata>
    <name>40 - VTT - Aller/retour Capbreton à Tarnos par piste cyclable</name>
    <desc><![CDATA[Soleil, repas sur plage Tarnos et arrêt café]]></desc>
  </metadata>
  <trk>
    <name><![CDATA[ACTIVE LOG 005]]></name>
    <trkseg>
      <trkpt lat="43.62129" lon="-1.44014">
        <ele>-2.2659912109375</ele>
        <time>2015-04-09T08:41:01Z</time>
      </trkpt>
      <trkpt lat="43.62128" lon="-1.44013">
        <ele>-3.227294921875</ele>
        <time>2015-04-09T08:41:02Z</time>
      </trkpt>
      <trkpt lat="43.62127" lon="-1.44013">
        <ele>-2.7467041015625</ele>
        <time>2015-04-09T08:41:03Z</time>
      </trkpt>
      <trkpt lat="43.62125" lon="-1.44016">
        <ele>-3.7078857421875</ele>
        <time>2015-04-09T08:41:21Z</time>
      </trkpt>
      <trkpt lat="43.62122" lon="-1.44011">
        <ele>-2.7467041015625</ele>
        <time>2015-04-09T08:41:42Z</time>
      </trkpt>
      <trkpt lat="43.62123" lon="-1.44009">
        <ele>-2.7467041015625</ele>
        <time>2015-04-09T08:41:56Z</time>
      </trkpt>
      <trkpt lat="43.62121" lon="-1.44011">
        <ele>-2.2659912109375</ele>
        <time>2015-04-09T08:42:15Z</time>
      </trkpt>
      <trkpt lat="43.62117" lon="-1.44012">
        <ele>-2.2659912109375</ele>
        <time>2015-04-09T08:42:31Z</time>
      </trkpt>
      <trkpt lat="43.62118" lon="-1.44013">
        <ele>-2.2659912109375</ele>
        <time>2015-04-09T08:42:52Z</time>
      </trkpt>
      <trkpt lat="43.62117" lon="-1.44011">
        <ele>-2.2659912109375</ele>
        <time>2015-04-09T08:43:13Z</time>
      </trkpt>
      <trkpt lat="43.62117" lon="-1.44011">
        <ele>-2.7467041015625</ele>
        <time>2015-04-09T08:44:56Z</time>
      </trkpt>
      <trkpt lat="43.62126" lon="-1.44006">
        <ele>-1.7852783203125</ele>
        <time>2015-04-09T08:45:32Z</time>
      </trkpt>
      <trkpt lat="43.6214" lon="-1.43994">
        <ele>-1.3046875</ele>
        <time>2015-04-09T08:45:40Z</time>
      </trkpt>
      <trkpt lat="43.62157" lon="-1.44016">
        <ele>-1.3046875</ele>
        <time>2015-04-09T08:45:50Z</time>
      </trkpt>
      <trkpt lat="43.62173" lon="-1.44065">
        <ele>-1.7852783203125</ele>
        <time>2015-04-09T08:46:06Z</time>
      </trkpt>
      <trkpt lat="43.62175" lon="-1.44125">
        <ele>-1.7852783203125</ele>
        <time>2015-04-09T08:46:24Z</time>
      </trkpt>
      <trkpt lat="43.62168" lon="-1.44187">
        <ele>-1.7852783203125</ele>
        <time>2015-04-09T08:46:41Z</time>
      </trkpt>
      <trkpt lat="43.62172" lon="-1.44245">
        <ele>-0.8240966796875</ele>
        <time>2015-04-09T08:46:59Z</time>
      </trkpt>
      <trkpt lat="43.62175" lon="-1.44284">
        <ele>-1.3046875</ele>
        <time>2015-04-09T08:47:12Z</time>
      </trkpt>
      <trkpt lat="43.62144" lon="-1.44301">
        <ele>-2.7467041015625</ele>
        <time>2015-04-09T08:47:22Z</time>
      </trkpt>
      <trkpt lat="43.62084" lon="-1.4433">
        <ele>-2.2659912109375</ele>
        <time>2015-04-09T08:47:41Z</time>
      </trkpt>
      <trkpt lat="43.62027" lon="-1.44358">
        <ele>-2.2659912109375</ele>
        <time>2015-04-09T08:48:01Z</time>
      </trkpt>
      <trkpt lat="43.61961" lon="-1.44395">
        <ele>-1.7852783203125</ele>
        <time>2015-04-09T08:48:22Z</time>
      </trkpt>
      <trkpt lat="43.61903" lon="-1.4443">
        <ele>-1.7852783203125</ele>
        <time>2015-04-09T08:48:41Z</time>
      </trkpt>
      <trkpt lat="43.61853" lon="-1.44467">
        <ele>-1.3046875</ele>
        <time>2015-04-09T08:48:58Z</time>
      </trkpt>
      <trkpt lat="43.61803" lon="-1.44501">
        <ele>-0.8240966796875</ele>
        <time>2015-04-09T08:49:14Z</time>
      </trkpt>
      <trkpt lat="43.61771" lon="-1.44516">
        <ele>-1.3046875</ele>
        <time>2015-04-09T08:49:24Z</time>
      </trkpt>
      <trkpt lat="43.6173" lon="-1.4453">
        <ele>-1.3046875</ele>
        <time>2015-04-09T08:49:36Z</time>
      </trkpt>
      <trkpt lat="43.61685" lon="-1.44595">
        <ele>-1.7852783203125</ele>
        <time>2015-04-09T08:49:54Z</time>
      </trkpt>
      <trkpt lat="43.61652" lon="-1.44673">
        <ele>-1.3046875</ele>
        <time>2015-04-09T08:50:13Z</time>
      </trkpt>
      <trkpt lat="43.61613" lon="-1.44756">
        <ele>-1.3046875</ele>
        <time>2015-04-09T08:50:32Z</time>
      </trkpt>
      <trkpt lat="43.6157" lon="-1.44839">
        <ele>-1.7852783203125</ele>
        <time>2015-04-09T08:50:53Z</time>
      </trkpt>
      <trkpt lat="43.61521" lon="-1.44925">
        <ele>-1.7852783203125</ele>
        <time>2015-04-09T08:51:14Z</time>
      </trkpt>
      <trkpt lat="43.61459" lon="-1.45039">
        <ele>-1.3046875</ele>
        <time>2015-04-09T08:51:41Z</time>
      </trkpt>
      <trkpt lat="43.614" lon="-1.45136">
        <ele>-1.7852783203125</ele>
        <time>2015-04-09T08:52:05Z</time>
      </trkpt>
      <trkpt lat="43.61339" lon="-1.45207">
        <ele>-1.3046875</ele>
        <time>2015-04-09T08:52:26Z</time>
      </trkpt>
      <trkpt lat="43.61289" lon="-1.45263">
        <ele>-1.3046875</ele>
        <time>2015-04-09T08:52:43Z</time>
      </trkpt>
      <trkpt lat="43.61226" lon="-1.45334">
        <ele>-1.3046875</ele>
        <time>2015-04-09T08:53:04Z</time>
      </trkpt>
      <trkpt lat="43.61159" lon="-1.45415">
        <ele>-0.8240966796875</ele>
        <time>2015-04-09T08:53:27Z</time>
      </trkpt>
      <trkpt lat="43.61097" lon="-1.45466">
        <ele>-0.8240966796875</ele>
        <time>2015-04-09T08:53:46Z</time>
      </trkpt>
      <trkpt lat="43.61033" lon="-1.45471">
        <ele>-1.7852783203125</ele>
        <time>2015-04-09T08:54:02Z</time>
      </trkpt>
      <trkpt lat="43.60986" lon="-1.45464">
        <ele>-0.3433837890625</ele>
        <time>2015-04-09T08:54:14Z</time>
      </trkpt>
      <trkpt lat="43.60926" lon="-1.45432">
        <ele>-1.7852783203125</ele>
        <time>2015-04-09T08:54:29Z</time>
      </trkpt>
      <trkpt lat="43.60848" lon="-1.45442">
        <ele>-0.8240966796875</ele>
        <time>2015-04-09T08:54:49Z</time>
      </trkpt>
      <trkpt lat="43.60766" lon="-1.45466">
        <ele>-0.8240966796875</ele>
        <time>2015-04-09T08:55:10Z</time>
      </trkpt>
      <trkpt lat="43.60692" lon="-1.4547">
        <ele>-1.7852783203125</ele>
        <time>2015-04-09T08:55:28Z</time>
      </trkpt>
      <trkpt lat="43.60624" lon="-1.45501">
        <ele>-0.8240966796875</ele>
        <time>2015-04-09T08:55:46Z</time>
      </trkpt>
      <trkpt lat="43.60568" lon="-1.45563">
        <ele>-1.7852783203125</ele>
        <time>2015-04-09T08:56:04Z</time>
      </trkpt>
      <trkpt lat="43.60501" lon="-1.45629">
        <ele>-1.3046875</ele>
        <time>2015-04-09T08:56:25Z</time>
      </trkpt>
      <trkpt lat="43.60433" lon="-1.45666">
        <ele>-0.3433837890625</ele>
        <time>2015-04-09T08:56:44Z</time>
      </trkpt>
      <trkpt lat="43.6035" lon="-1.4569">
        <ele>-1.3046875</ele>
        <time>2015-04-09T08:57:05Z</time>
      </trkpt>
      <trkpt lat="43.6028" lon="-1.45722">
        <ele>-0.8240966796875</ele>
        <time>2015-04-09T08:57:24Z</time>
      </trkpt>
      <trkpt lat="43.60209" lon="-1.45769">
        <ele>-0.3433837890625</ele>
        <time>2015-04-09T08:57:44Z</time>
      </trkpt>
      <trkpt lat="43.60142" lon="-1.45836">
        <ele>0.137451171875</ele>
        <time>2015-04-09T08:58:05Z</time>
      </trkpt>
      <trkpt lat="43.60081" lon="-1.45887">
        <ele>0.6180419921875</ele>
        <time>2015-04-09T08:58:23Z</time>
      </trkpt>
      <trkpt lat="43.60001" lon="-1.45941">
        <ele>0.137451171875</ele>
        <time>2015-04-09T08:58:44Z</time>
      </trkpt>
      <trkpt lat="43.59931" lon="-1.4598">
        <ele>1.0986328125</ele>
        <time>2015-04-09T08:59:03Z</time>
      </trkpt>
      <trkpt lat="43.59857" lon="-1.46008">
        <ele>1.579345703125</ele>
        <time>2015-04-09T08:59:22Z</time>
      </trkpt>
      <trkpt lat="43.5978" lon="-1.46022">
        <ele>1.0986328125</ele>
        <time>2015-04-09T08:59:41Z</time>
      </trkpt>
      <trkpt lat="43.597" lon="-1.4602">
        <ele>1.0986328125</ele>
        <time>2015-04-09T09:00:00Z</time>
      </trkpt>
      <trkpt lat="43.5963" lon="-1.46026">
        <ele>1.0986328125</ele>
        <time>2015-04-09T09:00:18Z</time>
      </trkpt>
      <trkpt lat="43.59598" lon="-1.46026">
        <ele>1.579345703125</ele>
        <time>2015-04-09T09:00:32Z</time>
      </trkpt>
      <trkpt lat="43.59585" lon="-1.46018">
        <ele>0.6180419921875</ele>
        <time>2015-04-09T09:00:38Z</time>
      </trkpt>
      <trkpt lat="43.59575" lon="-1.46022">
        <ele>1.579345703125</ele>
        <time>2015-04-09T09:00:42Z</time>
      </trkpt>
      <trkpt lat="43.59535" lon="-1.46047">
        <ele>1.579345703125</ele>
        <time>2015-04-09T09:00:58Z</time>
      </trkpt>
      <trkpt lat="43.59456" lon="-1.46057">
        <ele>3.021240234375</ele>
        <time>2015-04-09T09:01:20Z</time>
      </trkpt>
      <trkpt lat="43.59401" lon="-1.46061">
        <ele>3.021240234375</ele>
        <time>2015-04-09T09:01:34Z</time>
      </trkpt>
      <trkpt lat="43.59393" lon="-1.4606">
        <ele>3.021240234375</ele>
        <time>2015-04-09T09:01:36Z</time>
      </trkpt>
      <trkpt lat="43.5932" lon="-1.46065">
        <ele>3.501953125</ele>
        <time>2015-04-09T09:01:54Z</time>
      </trkpt>
      <trkpt lat="43.59239" lon="-1.46061">
        <ele>2.06005859375</ele>
        <time>2015-04-09T09:02:13Z</time>
      </trkpt>
      <trkpt lat="43.59155" lon="-1.4605">
        <ele>2.06005859375</ele>
        <time>2015-04-09T09:02:34Z</time>
      </trkpt>
      <trkpt lat="43.59056" lon="-1.46022">
        <ele>2.06005859375</ele>
        <time>2015-04-09T09:02:58Z</time>
      </trkpt>
      <trkpt lat="43.58964" lon="-1.45979">
        <ele>2.5406494140625</ele>
        <time>2015-04-09T09:03:22Z</time>
      </trkpt>
      <trkpt lat="43.589" lon="-1.45938">
        <ele>3.501953125</ele>
        <time>2015-04-09T09:03:40Z</time>
      </trkpt>
      <trkpt lat="43.58828" lon="-1.45886">
        <ele>3.021240234375</ele>
        <time>2015-04-09T09:04:00Z</time>
      </trkpt>
      <trkpt lat="43.58761" lon="-1.45828">
        <ele>2.5406494140625</ele>
        <time>2015-04-09T09:04:19Z</time>
      </trkpt>
      <trkpt lat="43.58751" lon="-1.45818">
        <ele>2.5406494140625</ele>
        <time>2015-04-09T09:04:22Z</time>
      </trkpt>
      <trkpt lat="43.58688" lon="-1.45748">
        <ele>3.021240234375</ele>
        <time>2015-04-09T09:04:42Z</time>
      </trkpt>
      <trkpt lat="43.58607" lon="-1.45654">
        <ele>3.501953125</ele>
        <time>2015-04-09T09:05:08Z</time>
      </trkpt>
      <trkpt lat="43.58558" lon="-1.45587">
        <ele>2.5406494140625</ele>
        <time>2015-04-09T09:05:25Z</time>
      </trkpt>
      <trkpt lat="43.58544" lon="-1.45565">
        <ele>3.021240234375</ele>
        <time>2015-04-09T09:05:33Z</time>
      </trkpt>
      <trkpt lat="43.58542" lon="-1.45568">
        <ele>3.501953125</ele>
        <time>2015-04-09T09:05:34Z</time>
      </trkpt>
      <trkpt lat="43.58516" lon="-1.45613">
        <ele>3.021240234375</ele>
        <time>2015-04-09T09:05:48Z</time>
      </trkpt>
      <trkpt lat="43.58477" lon="-1.45625">
        <ele>3.021240234375</ele>
        <time>2015-04-09T09:06:00Z</time>
      </trkpt>
      <trkpt lat="43.58426" lon="-1.4563">
        <ele>3.021240234375</ele>
        <time>2015-04-09T09:06:14Z</time>
      </trkpt>
      <trkpt lat="43.58343" lon="-1.45642">
        <ele>2.5406494140625</ele>
        <time>2015-04-09T09:06:35Z</time>
      </trkpt>
      <trkpt lat="43.58271" lon="-1.45651">
        <ele>3.021240234375</ele>
        <time>2015-04-09T09:06:54Z</time>
      </trkpt>
      <trkpt lat="43.58177" lon="-1.4566">
        <ele>3.501953125</ele>
        <time>2015-04-09T09:07:17Z</time>
      </trkpt>
      <trkpt lat="43.58084" lon="-1.45674">
        <ele>3.501953125</ele>
        <time>2015-04-09T09:07:40Z</time>
      </trkpt>
      <trkpt lat="43.58006" lon="-1.45695">
        <ele>3.021240234375</ele>
        <time>2015-04-09T09:08:00Z</time>
      </trkpt>
      <trkpt lat="43.57938" lon="-1.45721">
        <ele>3.982666015625</ele>
        <time>2015-04-09T09:08:18Z</time>
      </trkpt>
      <trkpt lat="43.57903" lon="-1.45754">
        <ele>3.501953125</ele>
        <time>2015-04-09T09:08:28Z</time>
      </trkpt>
      <trkpt lat="43.57848" lon="-1.45794">
        <ele>3.021240234375</ele>
        <time>2015-04-09T09:08:44Z</time>
      </trkpt>
      <trkpt lat="43.5781" lon="-1.4585">
        <ele>3.021240234375</ele>
        <time>2015-04-09T09:08:58Z</time>
      </trkpt>
      <trkpt lat="43.57784" lon="-1.45915">
        <ele>3.501953125</ele>
        <time>2015-04-09T09:09:11Z</time>
      </trkpt>
      <trkpt lat="43.57757" lon="-1.45973">
        <ele>3.982666015625</ele>
        <time>2015-04-09T09:09:24Z</time>
      </trkpt>
      <trkpt lat="43.57727" lon="-1.46024">
        <ele>3.501953125</ele>
        <time>2015-04-09T09:09:38Z</time>
      </trkpt>
      <trkpt lat="43.57678" lon="-1.46046">
        <ele>3.501953125</ele>
        <time>2015-04-09T09:09:52Z</time>
      </trkpt>
      <trkpt lat="43.57625" lon="-1.46054">
        <ele>4.4632568359375</ele>
        <time>2015-04-09T09:10:07Z</time>
      </trkpt>
      <trkpt lat="43.57567" lon="-1.46087">
        <ele>4.94384765625</ele>
        <time>2015-04-09T09:10:24Z</time>
      </trkpt>
      <trkpt lat="43.57551" lon="-1.46113">
        <ele>5.424560546875</ele>
        <time>2015-04-09T09:10:31Z</time>
      </trkpt>
      <trkpt lat="43.57548" lon="-1.46123">
        <ele>4.4632568359375</ele>
        <time>2015-04-09T09:10:33Z</time>
      </trkpt>
      <trkpt lat="43.57503" lon="-1.46195">
        <ele>4.94384765625</ele>
        <time>2015-04-09T09:10:50Z</time>
      </trkpt>
      <trkpt lat="43.57447" lon="-1.46257">
        <ele>4.4632568359375</ele>
        <time>2015-04-09T09:11:09Z</time>
      </trkpt>
      <trkpt lat="43.57398" lon="-1.46302">
        <ele>4.94384765625</ele>
        <time>2015-04-09T09:11:24Z</time>
      </trkpt>
      <trkpt lat="43.57373" lon="-1.46326">
        <ele>4.4632568359375</ele>
        <time>2015-04-09T09:11:32Z</time>
      </trkpt>
      <trkpt lat="43.57361" lon="-1.46341">
        <ele>4.94384765625</ele>
        <time>2015-04-09T09:11:36Z</time>
      </trkpt>
      <trkpt lat="43.57314" lon="-1.464">
        <ele>4.4632568359375</ele>
        <time>2015-04-09T09:11:52Z</time>
      </trkpt>
      <trkpt lat="43.57301" lon="-1.46412">
        <ele>4.94384765625</ele>
        <time>2015-04-09T09:11:56Z</time>
      </trkpt>
      <trkpt lat="43.57264" lon="-1.4645">
        <ele>4.94384765625</ele>
        <time>2015-04-09T09:12:08Z</time>
      </trkpt>
      <trkpt lat="43.57254" lon="-1.46462">
        <ele>4.94384765625</ele>
        <time>2015-04-09T09:12:11Z</time>
      </trkpt>
      <trkpt lat="43.57236" lon="-1.46482">
        <ele>4.94384765625</ele>
        <time>2015-04-09T09:12:17Z</time>
      </trkpt>
      <trkpt lat="43.57214" lon="-1.46506">
        <ele>5.424560546875</ele>
        <time>2015-04-09T09:12:25Z</time>
      </trkpt>
      <trkpt lat="43.57203" lon="-1.46523">
        <ele>4.94384765625</ele>
        <time>2015-04-09T09:12:29Z</time>
      </trkpt>
      <trkpt lat="43.57167" lon="-1.46563">
        <ele>4.4632568359375</ele>
        <time>2015-04-09T09:12:40Z</time>
      </trkpt>
      <trkpt lat="43.57151" lon="-1.46583">
        <ele>4.4632568359375</ele>
        <time>2015-04-09T09:12:45Z</time>
      </trkpt>
      <trkpt lat="43.57128" lon="-1.46601">
        <ele>4.4632568359375</ele>
        <time>2015-04-09T09:12:52Z</time>
      </trkpt>
      <trkpt lat="43.57074" lon="-1.46661">
        <ele>4.4632568359375</ele>
        <time>2015-04-09T09:13:11Z</time>
      </trkpt>
      <trkpt lat="43.57048" lon="-1.46691">
        <ele>4.4632568359375</ele>
        <time>2015-04-09T09:13:21Z</time>
      </trkpt>
      <trkpt lat="43.57046" lon="-1.46706">
        <ele>4.4632568359375</ele>
        <time>2015-04-09T09:13:25Z</time>
      </trkpt>
      <trkpt lat="43.5707" lon="-1.46783">
        <ele>4.4632568359375</ele>
        <time>2015-04-09T09:13:44Z</time>
      </trkpt>
      <trkpt lat="43.57106" lon="-1.46886">
        <ele>4.94384765625</ele>
        <time>2015-04-09T09:14:08Z</time>
      </trkpt>
      <trkpt lat="43.57138" lon="-1.4698">
        <ele>4.4632568359375</ele>
        <time>2015-04-09T09:14:29Z</time>
      </trkpt>
      <trkpt lat="43.57168" lon="-1.4707">
        <ele>4.94384765625</ele>
        <time>2015-04-09T09:14:49Z</time>
      </trkpt>
      <trkpt lat="43.57197" lon="-1.47132">
        <ele>5.9052734375</ele>
        <time>2015-04-09T09:15:06Z</time>
      </trkpt>
      <trkpt lat="43.572" lon="-1.47133">
        <ele>5.9052734375</ele>
        <time>2015-04-09T09:15:07Z</time>
      </trkpt>
      <trkpt lat="43.57203" lon="-1.47169">
        <ele>4.94384765625</ele>
        <time>2015-04-09T09:15:19Z</time>
      </trkpt>
      <trkpt lat="43.57181" lon="-1.47188">
        <ele>5.9052734375</ele>
        <time>2015-04-09T09:15:30Z</time>
      </trkpt>
      <trkpt lat="43.57149" lon="-1.47214">
        <ele>5.9052734375</ele>
        <time>2015-04-09T09:15:44Z</time>
      </trkpt>
      <trkpt lat="43.57147" lon="-1.47217">
        <ele>5.9052734375</ele>
        <time>2015-04-09T09:15:45Z</time>
      </trkpt>
      <trkpt lat="43.57128" lon="-1.47217">
        <ele>4.94384765625</ele>
        <time>2015-04-09T09:15:50Z</time>
      </trkpt>
      <trkpt lat="43.57076" lon="-1.4717">
        <ele>4.4632568359375</ele>
        <time>2015-04-09T09:16:06Z</time>
      </trkpt>
      <trkpt lat="43.56996" lon="-1.47108">
        <ele>4.94384765625</ele>
        <time>2015-04-09T09:16:30Z</time>
      </trkpt>
      <trkpt lat="43.56973" lon="-1.47114">
        <ele>4.4632568359375</ele>
        <time>2015-04-09T09:16:39Z</time>
      </trkpt>
      <trkpt lat="43.56969" lon="-1.47115">
        <ele>4.4632568359375</ele>
        <time>2015-04-09T09:16:41Z</time>
      </trkpt>
      <trkpt lat="43.56957" lon="-1.47129">
        <ele>4.4632568359375</ele>
        <time>2015-04-09T09:16:49Z</time>
      </trkpt>
      <trkpt lat="43.56942" lon="-1.4716">
        <ele>4.4632568359375</ele>
        <time>2015-04-09T09:17:04Z</time>
      </trkpt>
      <trkpt lat="43.56916" lon="-1.47194">
        <ele>4.94384765625</ele>
        <time>2015-04-09T09:17:20Z</time>
      </trkpt>
      <trkpt lat="43.56899" lon="-1.47215">
        <ele>3.501953125</ele>
        <time>2015-04-09T09:17:36Z</time>
      </trkpt>
      <trkpt lat="43.56899" lon="-1.47215">
        <ele>3.982666015625</ele>
        <time>2015-04-09T09:17:38Z</time>
      </trkpt>
      <trkpt lat="43.56895" lon="-1.47213">
        <ele>3.982666015625</ele>
        <time>2015-04-09T09:17:42Z</time>
      </trkpt>
      <trkpt lat="43.56878" lon="-1.47199">
        <ele>3.982666015625</ele>
        <time>2015-04-09T09:18:00Z</time>
      </trkpt>
      <trkpt lat="43.56878" lon="-1.47198">
        <ele>4.4632568359375</ele>
        <time>2015-04-09T09:18:15Z</time>
      </trkpt>
      <trkpt lat="43.56876" lon="-1.47196">
        <ele>4.94384765625</ele>
        <time>2015-04-09T09:18:28Z</time>
      </trkpt>
      <trkpt lat="43.56867" lon="-1.47186">
        <ele>5.424560546875</ele>
        <time>2015-04-09T09:18:41Z</time>
      </trkpt>
      <trkpt lat="43.56861" lon="-1.47172">
        <ele>4.94384765625</ele>
        <time>2015-04-09T09:18:48Z</time>
      </trkpt>
      <trkpt lat="43.56864" lon="-1.47172">
        <ele>4.94384765625</ele>
        <time>2015-04-09T09:18:55Z</time>
      </trkpt>
      <trkpt lat="43.56879" lon="-1.47198">
        <ele>4.94384765625</ele>
        <time>2015-04-09T09:19:15Z</time>
      </trkpt>
      <trkpt lat="43.56877" lon="-1.47197">
        <ele>4.94384765625</ele>
        <time>2015-04-09T09:19:29Z</time>
      </trkpt>
      <trkpt lat="43.56875" lon="-1.47195">
        <ele>4.94384765625</ele>
        <time>2015-04-09T09:19:35Z</time>
      </trkpt>
      <trkpt lat="43.56861" lon="-1.47175">
        <ele>5.424560546875</ele>
        <time>2015-04-09T09:19:49Z</time>
      </trkpt>
      <trkpt lat="43.56861" lon="-1.4717">
        <ele>5.424560546875</ele>
        <time>2015-04-09T09:19:51Z</time>
      </trkpt>
      <trkpt lat="43.5685" lon="-1.47157">
        <ele>4.94384765625</ele>
        <time>2015-04-09T09:20:05Z</time>
      </trkpt>
      <trkpt lat="43.56838" lon="-1.47139">
        <ele>4.94384765625</ele>
        <time>2015-04-09T09:20:17Z</time>
      </trkpt>
      <trkpt lat="43.56788" lon="-1.47073">
        <ele>4.94384765625</ele>
        <time>2015-04-09T09:20:38Z</time>
      </trkpt>
      <trkpt lat="43.56737" lon="-1.47009">
        <ele>4.94384765625</ele>
        <time>2015-04-09T09:20:57Z</time>
      </trkpt>
      <trkpt lat="43.56716" lon="-1.4698">
        <ele>4.94384765625</ele>
        <time>2015-04-09T09:21:05Z</time>
      </trkpt>
      <trkpt lat="43.56681" lon="-1.46928">
        <ele>5.424560546875</ele>
        <time>2015-04-09T09:21:19Z</time>
      </trkpt>
      <trkpt lat="43.56634" lon="-1.46863">
        <ele>4.94384765625</ele>
        <time>2015-04-09T09:21:38Z</time>
      </trkpt>
      <trkpt lat="43.56585" lon="-1.46795">
        <ele>4.94384765625</ele>
        <time>2015-04-09T09:21:57Z</time>
      </trkpt>
      <trkpt lat="43.56539" lon="-1.4672">
        <ele>5.9052734375</ele>
        <time>2015-04-09T09:22:17Z</time>
      </trkpt>
      <trkpt lat="43.56508" lon="-1.46643">
        <ele>5.424560546875</ele>
        <time>2015-04-09T09:22:35Z</time>
      </trkpt>
      <trkpt lat="43.56484" lon="-1.46579">
        <ele>5.424560546875</ele>
        <time>2015-04-09T09:22:52Z</time>
      </trkpt>
      <trkpt lat="43.56455" lon="-1.46577">
        <ele>5.424560546875</ele>
        <time>2015-04-09T09:23:03Z</time>
      </trkpt>
      <trkpt lat="43.5639" lon="-1.46619">
        <ele>5.9052734375</ele>
        <time>2015-04-09T09:23:25Z</time>
      </trkpt>
      <trkpt lat="43.56321" lon="-1.46662">
        <ele>5.9052734375</ele>
        <time>2015-04-09T09:23:45Z</time>
      </trkpt>
      <trkpt lat="43.56253" lon="-1.46702">
        <ele>5.9052734375</ele>
        <time>2015-04-09T09:24:04Z</time>
      </trkpt>
      <trkpt lat="43.56182" lon="-1.46744">
        <ele>5.9052734375</ele>
        <time>2015-04-09T09:24:24Z</time>
      </trkpt>
      <trkpt lat="43.56112" lon="-1.46788">
        <ele>6.866455078125</ele>
        <time>2015-04-09T09:24:43Z</time>
      </trkpt>
      <trkpt lat="43.56048" lon="-1.46817">
        <ele>6.866455078125</ele>
        <time>2015-04-09T09:25:00Z</time>
      </trkpt>
      <trkpt lat="43.56025" lon="-1.46775">
        <ele>6.866455078125</ele>
        <time>2015-04-09T09:25:10Z</time>
      </trkpt>
      <trkpt lat="43.55993" lon="-1.46684">
        <ele>7.34716796875</ele>
        <time>2015-04-09T09:25:30Z</time>
      </trkpt>
      <trkpt lat="43.5597" lon="-1.46621">
        <ele>7.34716796875</ele>
        <time>2015-04-09T09:25:48Z</time>
      </trkpt>
      <trkpt lat="43.55968" lon="-1.46604">
        <ele>7.827880859375</ele>
        <time>2015-04-09T09:25:55Z</time>
      </trkpt>
      <trkpt lat="43.55964" lon="-1.466">
        <ele>7.34716796875</ele>
        <time>2015-04-09T09:25:59Z</time>
      </trkpt>
      <trkpt lat="43.55931" lon="-1.46619">
        <ele>8.30859375</ele>
        <time>2015-04-09T09:26:13Z</time>
      </trkpt>
      <trkpt lat="43.55872" lon="-1.46677">
        <ele>7.827880859375</ele>
        <time>2015-04-09T09:26:34Z</time>
      </trkpt>
      <trkpt lat="43.55794" lon="-1.4675">
        <ele>7.827880859375</ele>
        <time>2015-04-09T09:26:59Z</time>
      </trkpt>
      <trkpt lat="43.5572" lon="-1.46822">
        <ele>6.866455078125</ele>
        <time>2015-04-09T09:27:22Z</time>
      </trkpt>
      <trkpt lat="43.5563" lon="-1.46908">
        <ele>6.3858642578125</ele>
        <time>2015-04-09T09:27:49Z</time>
      </trkpt>
      <trkpt lat="43.55548" lon="-1.46985">
        <ele>6.866455078125</ele>
        <time>2015-04-09T09:28:14Z</time>
      </trkpt>
      <trkpt lat="43.55466" lon="-1.47064">
        <ele>7.827880859375</ele>
        <time>2015-04-09T09:28:39Z</time>
      </trkpt>
      <trkpt lat="43.55375" lon="-1.4715">
        <ele>7.827880859375</ele>
        <time>2015-04-09T09:29:05Z</time>
      </trkpt>
      <trkpt lat="43.55292" lon="-1.47229">
        <ele>7.34716796875</ele>
        <time>2015-04-09T09:29:29Z</time>
      </trkpt>
      <trkpt lat="43.55249" lon="-1.47307">
        <ele>7.827880859375</ele>
        <time>2015-04-09T09:29:47Z</time>
      </trkpt>
      <trkpt lat="43.55241" lon="-1.47415">
        <ele>10.231201171875</ele>
        <time>2015-04-09T09:30:06Z</time>
      </trkpt>
      <trkpt lat="43.55233" lon="-1.47538">
        <ele>9.2698974609375</ele>
        <time>2015-04-09T09:30:28Z</time>
      </trkpt>
      <trkpt lat="43.55229" lon="-1.47603">
        <ele>9.2698974609375</ele>
        <time>2015-04-09T09:30:43Z</time>
      </trkpt>
      <trkpt lat="43.55229" lon="-1.47606">
        <ele>9.2698974609375</ele>
        <time>2015-04-09T09:30:44Z</time>
      </trkpt>
      <trkpt lat="43.55232" lon="-1.47607">
        <ele>9.2698974609375</ele>
        <time>2015-04-09T09:30:49Z</time>
      </trkpt>
      <trkpt lat="43.55234" lon="-1.476">
        <ele>8.7891845703125</ele>
        <time>2015-04-09T09:30:54Z</time>
      </trkpt>
      <trkpt lat="43.55244" lon="-1.47609">
        <ele>9.2698974609375</ele>
        <time>2015-04-09T09:31:01Z</time>
      </trkpt>
      <trkpt lat="43.55271" lon="-1.47645">
        <ele>8.7891845703125</ele>
        <time>2015-04-09T09:31:17Z</time>
      </trkpt>
      <trkpt lat="43.553" lon="-1.47677">
        <ele>8.7891845703125</ele>
        <time>2015-04-09T09:31:30Z</time>
      </trkpt>
      <trkpt lat="43.55333" lon="-1.47716">
        <ele>8.7891845703125</ele>
        <time>2015-04-09T09:31:43Z</time>
      </trkpt>
      <trkpt lat="43.55357" lon="-1.47775">
        <ele>8.7891845703125</ele>
        <time>2015-04-09T09:31:57Z</time>
      </trkpt>
      <trkpt lat="43.55378" lon="-1.47819">
        <ele>8.30859375</ele>
        <time>2015-04-09T09:32:08Z</time>
      </trkpt>
      <trkpt lat="43.55401" lon="-1.47874">
        <ele>8.7891845703125</ele>
        <time>2015-04-09T09:32:21Z</time>
      </trkpt>
      <trkpt lat="43.5543" lon="-1.47936">
        <ele>8.7891845703125</ele>
        <time>2015-04-09T09:32:37Z</time>
      </trkpt>
      <trkpt lat="43.55452" lon="-1.47999">
        <ele>8.7891845703125</ele>
        <time>2015-04-09T09:32:51Z</time>
      </trkpt>
      <trkpt lat="43.55483" lon="-1.48057">
        <ele>8.30859375</ele>
        <time>2015-04-09T09:33:06Z</time>
      </trkpt>
      <trkpt lat="43.55503" lon="-1.48115">
        <ele>8.7891845703125</ele>
        <time>2015-04-09T09:33:19Z</time>
      </trkpt>
      <trkpt lat="43.55521" lon="-1.48175">
        <ele>8.7891845703125</ele>
        <time>2015-04-09T09:33:33Z</time>
      </trkpt>
      <trkpt lat="43.55534" lon="-1.48233">
        <ele>8.30859375</ele>
        <time>2015-04-09T09:33:46Z</time>
      </trkpt>
      <trkpt lat="43.55541" lon="-1.48291">
        <ele>8.30859375</ele>
        <time>2015-04-09T09:34:00Z</time>
      </trkpt>
      <trkpt lat="43.55557" lon="-1.48343">
        <ele>7.827880859375</ele>
        <time>2015-04-09T09:34:12Z</time>
      </trkpt>
      <trkpt lat="43.55582" lon="-1.48388">
        <ele>8.30859375</ele>
        <time>2015-04-09T09:34:24Z</time>
      </trkpt>
      <trkpt lat="43.55602" lon="-1.48434">
        <ele>7.34716796875</ele>
        <time>2015-04-09T09:34:35Z</time>
      </trkpt>
      <trkpt lat="43.55612" lon="-1.48481">
        <ele>7.827880859375</ele>
        <time>2015-04-09T09:34:45Z</time>
      </trkpt>
      <trkpt lat="43.55625" lon="-1.48544">
        <ele>7.34716796875</ele>
        <time>2015-04-09T09:34:59Z</time>
      </trkpt>
      <trkpt lat="43.55652" lon="-1.48572">
        <ele>7.827880859375</ele>
        <time>2015-04-09T09:35:10Z</time>
      </trkpt>
      <trkpt lat="43.55693" lon="-1.48597">
        <ele>8.30859375</ele>
        <time>2015-04-09T09:35:23Z</time>
      </trkpt>
      <trkpt lat="43.5574" lon="-1.48631">
        <ele>7.34716796875</ele>
        <time>2015-04-09T09:35:38Z</time>
      </trkpt>
      <trkpt lat="43.55744" lon="-1.48652">
        <ele>7.34716796875</ele>
        <time>2015-04-09T09:35:43Z</time>
      </trkpt>
      <trkpt lat="43.55746" lon="-1.48728">
        <ele>7.34716796875</ele>
        <time>2015-04-09T09:35:59Z</time>
      </trkpt>
      <trkpt lat="43.55773" lon="-1.48806">
        <ele>7.34716796875</ele>
        <time>2015-04-09T09:36:16Z</time>
      </trkpt>
      <trkpt lat="43.55802" lon="-1.48886">
        <ele>7.34716796875</ele>
        <time>2015-04-09T09:36:33Z</time>
      </trkpt>
      <trkpt lat="43.55832" lon="-1.48976">
        <ele>7.34716796875</ele>
        <time>2015-04-09T09:36:51Z</time>
      </trkpt>
      <trkpt lat="43.55864" lon="-1.49065">
        <ele>6.866455078125</ele>
        <time>2015-04-09T09:37:10Z</time>
      </trkpt>
      <trkpt lat="43.55892" lon="-1.49146">
        <ele>7.34716796875</ele>
        <time>2015-04-09T09:37:27Z</time>
      </trkpt>
      <trkpt lat="43.55921" lon="-1.49232">
        <ele>7.34716796875</ele>
        <time>2015-04-09T09:37:45Z</time>
      </trkpt>
      <trkpt lat="43.55954" lon="-1.49327">
        <ele>7.34716796875</ele>
        <time>2015-04-09T09:38:04Z</time>
      </trkpt>
      <trkpt lat="43.55996" lon="-1.49381">
        <ele>7.34716796875</ele>
        <time>2015-04-09T09:38:19Z</time>
      </trkpt>
      <trkpt lat="43.5602" lon="-1.49416">
        <ele>6.3858642578125</ele>
        <time>2015-04-09T09:38:30Z</time>
      </trkpt>
      <trkpt lat="43.56026" lon="-1.49489">
        <ele>7.34716796875</ele>
        <time>2015-04-09T09:38:46Z</time>
      </trkpt>
      <trkpt lat="43.55992" lon="-1.49515">
        <ele>7.827880859375</ele>
        <time>2015-04-09T09:38:57Z</time>
      </trkpt>
      <trkpt lat="43.55938" lon="-1.49546">
        <ele>7.827880859375</ele>
        <time>2015-04-09T09:39:14Z</time>
      </trkpt>
      <trkpt lat="43.5588" lon="-1.49591">
        <ele>8.7891845703125</ele>
        <time>2015-04-09T09:39:32Z</time>
      </trkpt>
      <trkpt lat="43.55834" lon="-1.49626">
        <ele>8.30859375</ele>
        <time>2015-04-09T09:39:46Z</time>
      </trkpt>
      <trkpt lat="43.55802" lon="-1.49642">
        <ele>8.30859375</ele>
        <time>2015-04-09T09:39:54Z</time>
      </trkpt>
      <trkpt lat="43.55789" lon="-1.49655">
        <ele>7.34716796875</ele>
        <time>2015-04-09T09:39:58Z</time>
      </trkpt>
      <trkpt lat="43.55768" lon="-1.49678">
        <ele>7.34716796875</ele>
        <time>2015-04-09T09:40:09Z</time>
      </trkpt>
      <trkpt lat="43.5574" lon="-1.49678">
        <ele>7.34716796875</ele>
        <time>2015-04-09T09:40:21Z</time>
      </trkpt>
      <trkpt lat="43.55716" lon="-1.49705">
        <ele>7.34716796875</ele>
        <time>2015-04-09T09:40:32Z</time>
      </trkpt>
      <trkpt lat="43.55686" lon="-1.49725">
        <ele>7.34716796875</ele>
        <time>2015-04-09T09:40:44Z</time>
      </trkpt>
      <trkpt lat="43.55642" lon="-1.49754">
        <ele>7.827880859375</ele>
        <time>2015-04-09T09:41:00Z</time>
      </trkpt>
      <trkpt lat="43.55571" lon="-1.49795">
        <ele>8.30859375</ele>
        <time>2015-04-09T09:41:21Z</time>
      </trkpt>
      <trkpt lat="43.55497" lon="-1.49843">
        <ele>7.827880859375</ele>
        <time>2015-04-09T09:41:41Z</time>
      </trkpt>
      <trkpt lat="43.55411" lon="-1.49879">
        <ele>7.827880859375</ele>
        <time>2015-04-09T09:42:02Z</time>
      </trkpt>
      <trkpt lat="43.55319" lon="-1.49904">
        <ele>7.34716796875</ele>
        <time>2015-04-09T09:42:24Z</time>
      </trkpt>
      <trkpt lat="43.5529" lon="-1.49909">
        <ele>8.30859375</ele>
        <time>2015-04-09T09:42:31Z</time>
      </trkpt>
      <trkpt lat="43.55245" lon="-1.49928">
        <ele>8.30859375</ele>
        <time>2015-04-09T09:42:42Z</time>
      </trkpt>
      <trkpt lat="43.55173" lon="-1.49992">
        <ele>8.30859375</ele>
        <time>2015-04-09T09:43:02Z</time>
      </trkpt>
      <trkpt lat="43.55107" lon="-1.50035">
        <ele>9.2698974609375</ele>
        <time>2015-04-09T09:43:19Z</time>
      </trkpt>
      <trkpt lat="43.55103" lon="-1.50038">
        <ele>9.7506103515625</ele>
        <time>2015-04-09T09:43:20Z</time>
      </trkpt>
      <trkpt lat="43.55092" lon="-1.50046">
        <ele>9.2698974609375</ele>
        <time>2015-04-09T09:43:23Z</time>
      </trkpt>
      <trkpt lat="43.55039" lon="-1.50103">
        <ele>8.7891845703125</ele>
        <time>2015-04-09T09:43:38Z</time>
      </trkpt>
      <trkpt lat="43.54982" lon="-1.5018">
        <ele>9.7506103515625</ele>
        <time>2015-04-09T09:43:57Z</time>
      </trkpt>
      <trkpt lat="43.54918" lon="-1.50263">
        <ele>11.192504882812</ele>
        <time>2015-04-09T09:44:18Z</time>
      </trkpt>
      <trkpt lat="43.54862" lon="-1.50329">
        <ele>11.192504882812</ele>
        <time>2015-04-09T09:44:36Z</time>
      </trkpt>
      <trkpt lat="43.54827" lon="-1.50362">
        <ele>10.711791992188</ele>
        <time>2015-04-09T09:44:45Z</time>
      </trkpt>
      <trkpt lat="43.54752" lon="-1.50431">
        <ele>8.7891845703125</ele>
        <time>2015-04-09T09:45:03Z</time>
      </trkpt>
      <trkpt lat="43.54687" lon="-1.50492">
        <ele>9.7506103515625</ele>
        <time>2015-04-09T09:45:21Z</time>
      </trkpt>
      <trkpt lat="43.54668" lon="-1.5051">
        <ele>9.7506103515625</ele>
        <time>2015-04-09T09:45:26Z</time>
      </trkpt>
      <trkpt lat="43.54589" lon="-1.506">
        <ele>9.2698974609375</ele>
        <time>2015-04-09T09:45:47Z</time>
      </trkpt>
      <trkpt lat="43.54541" lon="-1.50662">
        <ele>7.827880859375</ele>
        <time>2015-04-09T09:46:00Z</time>
      </trkpt>
      <trkpt lat="43.54517" lon="-1.50689">
        <ele>7.827880859375</ele>
        <time>2015-04-09T09:46:06Z</time>
      </trkpt>
      <trkpt lat="43.54465" lon="-1.50726">
        <ele>8.30859375</ele>
        <time>2015-04-09T09:46:19Z</time>
      </trkpt>
      <trkpt lat="43.54404" lon="-1.50731">
        <ele>8.7891845703125</ele>
        <time>2015-04-09T09:46:33Z</time>
      </trkpt>
      <trkpt lat="43.54328" lon="-1.50715">
        <ele>8.30859375</ele>
        <time>2015-04-09T09:46:48Z</time>
      </trkpt>
      <trkpt lat="43.54306" lon="-1.50701">
        <ele>9.2698974609375</ele>
        <time>2015-04-09T09:46:54Z</time>
      </trkpt>
      <trkpt lat="43.54288" lon="-1.50699">
        <ele>8.7891845703125</ele>
        <time>2015-04-09T09:46:58Z</time>
      </trkpt>
      <trkpt lat="43.54232" lon="-1.50717">
        <ele>8.7891845703125</ele>
        <time>2015-04-09T09:47:10Z</time>
      </trkpt>
      <trkpt lat="43.54196" lon="-1.50711">
        <ele>7.827880859375</ele>
        <time>2015-04-09T09:47:18Z</time>
      </trkpt>
      <trkpt lat="43.54115" lon="-1.50745">
        <ele>6.866455078125</ele>
        <time>2015-04-09T09:47:34Z</time>
      </trkpt>
      <trkpt lat="43.54066" lon="-1.50804">
        <ele>8.30859375</ele>
        <time>2015-04-09T09:47:49Z</time>
      </trkpt>
      <trkpt lat="43.54045" lon="-1.50833">
        <ele>8.30859375</ele>
        <time>2015-04-09T09:47:56Z</time>
      </trkpt>
      <trkpt lat="43.5403" lon="-1.50843">
        <ele>8.7891845703125</ele>
        <time>2015-04-09T09:48:00Z</time>
      </trkpt>
      <trkpt lat="43.53974" lon="-1.50845">
        <ele>7.827880859375</ele>
        <time>2015-04-09T09:48:12Z</time>
      </trkpt>
      <trkpt lat="43.53899" lon="-1.50784">
        <ele>5.9052734375</ele>
        <time>2015-04-09T09:48:27Z</time>
      </trkpt>
      <trkpt lat="43.53838" lon="-1.5072">
        <ele>4.94384765625</ele>
        <time>2015-04-09T09:48:43Z</time>
      </trkpt>
      <trkpt lat="43.53768" lon="-1.50658">
        <ele>7.827880859375</ele>
        <time>2015-04-09T09:49:02Z</time>
      </trkpt>
      <trkpt lat="43.53699" lon="-1.50664">
        <ele>7.827880859375</ele>
        <time>2015-04-09T09:49:21Z</time>
      </trkpt>
      <trkpt lat="43.53688" lon="-1.50684">
        <ele>7.827880859375</ele>
        <time>2015-04-09T09:49:32Z</time>
      </trkpt>
      <trkpt lat="43.53695" lon="-1.50724">
        <ele>11.192504882812</ele>
        <time>2015-04-09T09:49:45Z</time>
      </trkpt>
      <trkpt lat="43.53697" lon="-1.50731">
        <ele>11.673217773438</ele>
        <time>2015-04-09T09:49:47Z</time>
      </trkpt>
      <trkpt lat="43.53709" lon="-1.50784">
        <ele>12.634399414062</ele>
        <time>2015-04-09T09:50:02Z</time>
      </trkpt>
      <trkpt lat="43.53723" lon="-1.50836">
        <ele>12.634399414062</ele>
        <time>2015-04-09T09:50:17Z</time>
      </trkpt>
      <trkpt lat="43.53726" lon="-1.50846">
        <ele>11.673217773438</ele>
        <time>2015-04-09T09:50:19Z</time>
      </trkpt>
      <trkpt lat="43.53731" lon="-1.50874">
        <ele>9.7506103515625</ele>
        <time>2015-04-09T09:50:23Z</time>
      </trkpt>
      <trkpt lat="43.53744" lon="-1.50939">
        <ele>6.866455078125</ele>
        <time>2015-04-09T09:50:30Z</time>
      </trkpt>
      <trkpt lat="43.53767" lon="-1.51035">
        <ele>6.3858642578125</ele>
        <time>2015-04-09T09:50:43Z</time>
      </trkpt>
      <trkpt lat="43.53782" lon="-1.51105">
        <ele>7.827880859375</ele>
        <time>2015-04-09T09:50:59Z</time>
      </trkpt>
      <trkpt lat="43.53792" lon="-1.51149">
        <ele>11.673217773438</ele>
        <time>2015-04-09T09:51:11Z</time>
      </trkpt>
      <trkpt lat="43.53798" lon="-1.5119">
        <ele>13.595825195312</ele>
        <time>2015-04-09T09:51:23Z</time>
      </trkpt>
      <trkpt lat="43.53805" lon="-1.51225">
        <ele>14.557006835938</ele>
        <time>2015-04-09T09:51:38Z</time>
      </trkpt>
      <trkpt lat="43.53814" lon="-1.51252">
        <ele>13.595825195312</ele>
        <time>2015-04-09T09:51:56Z</time>
      </trkpt>
      <trkpt lat="43.53828" lon="-1.51287">
        <ele>11.192504882812</ele>
        <time>2015-04-09T09:52:11Z</time>
      </trkpt>
      <trkpt lat="43.53838" lon="-1.51289">
        <ele>11.192504882812</ele>
        <time>2015-04-09T09:52:21Z</time>
      </trkpt>
      <trkpt lat="43.53839" lon="-1.51285">
        <ele>10.711791992188</ele>
        <time>2015-04-09T09:52:31Z</time>
      </trkpt>
      <trkpt lat="43.53848" lon="-1.51284">
        <ele>11.192504882812</ele>
        <time>2015-04-09T09:52:46Z</time>
      </trkpt>
      <trkpt lat="43.53868" lon="-1.51275">
        <ele>11.673217773438</ele>
        <time>2015-04-09T09:52:56Z</time>
      </trkpt>
      <trkpt lat="43.5391" lon="-1.51249">
        <ele>11.192504882812</ele>
        <time>2015-04-09T09:53:14Z</time>
      </trkpt>
      <trkpt lat="43.53946" lon="-1.51227">
        <ele>11.192504882812</ele>
        <time>2015-04-09T09:53:29Z</time>
      </trkpt>
      <trkpt lat="43.53981" lon="-1.51204">
        <ele>11.192504882812</ele>
        <time>2015-04-09T09:53:44Z</time>
      </trkpt>
      <trkpt lat="43.54027" lon="-1.51174">
        <ele>11.673217773438</ele>
        <time>2015-04-09T09:54:01Z</time>
      </trkpt>
      <trkpt lat="43.54079" lon="-1.51142">
        <ele>12.634399414062</ele>
        <time>2015-04-09T09:54:20Z</time>
      </trkpt>
      <trkpt lat="43.54124" lon="-1.51115">
        <ele>12.634399414062</ele>
        <time>2015-04-09T09:54:38Z</time>
      </trkpt>
      <trkpt lat="43.54167" lon="-1.51102">
        <ele>12.15380859375</ele>
        <time>2015-04-09T09:54:55Z</time>
      </trkpt>
      <trkpt lat="43.54199" lon="-1.51104">
        <ele>11.673217773438</ele>
        <time>2015-04-09T09:55:09Z</time>
      </trkpt>
      <trkpt lat="43.54233" lon="-1.51111">
        <ele>12.634399414062</ele>
        <time>2015-04-09T09:55:25Z</time>
      </trkpt>
      <trkpt lat="43.54281" lon="-1.51114">
        <ele>12.634399414062</ele>
        <time>2015-04-09T09:55:44Z</time>
      </trkpt>
      <trkpt lat="43.54305" lon="-1.51107">
        <ele>13.115112304688</ele>
        <time>2015-04-09T09:55:54Z</time>
      </trkpt>
      <trkpt lat="43.54312" lon="-1.51109">
        <ele>13.115112304688</ele>
        <time>2015-04-09T09:55:58Z</time>
      </trkpt>
      <trkpt lat="43.54317" lon="-1.51114">
        <ele>12.634399414062</ele>
        <time>2015-04-09T09:56:11Z</time>
      </trkpt>
      <trkpt lat="43.5432" lon="-1.51125">
        <ele>12.15380859375</ele>
        <time>2015-04-09T09:56:24Z</time>
      </trkpt>
      <trkpt lat="43.54328" lon="-1.51151">
        <ele>10.711791992188</ele>
        <time>2015-04-09T09:56:47Z</time>
      </trkpt>
      <trkpt lat="43.54328" lon="-1.5115">
        <ele>11.192504882812</ele>
        <time>2015-04-09T09:56:55Z</time>
      </trkpt>
      <trkpt lat="43.54322" lon="-1.51136">
        <ele>11.673217773438</ele>
        <time>2015-04-09T09:57:13Z</time>
      </trkpt>
      <trkpt lat="43.54328" lon="-1.5115">
        <ele>11.192504882812</ele>
        <time>2015-04-09T09:57:29Z</time>
      </trkpt>
      <trkpt lat="43.54327" lon="-1.51151">
        <ele>10.711791992188</ele>
        <time>2015-04-09T09:57:40Z</time>
      </trkpt>
      <trkpt lat="43.54326" lon="-1.51161">
        <ele>11.192504882812</ele>
        <time>2015-04-09T09:57:57Z</time>
      </trkpt>
      <trkpt lat="43.54324" lon="-1.51174">
        <ele>11.192504882812</ele>
        <time>2015-04-09T09:58:12Z</time>
      </trkpt>
      <trkpt lat="43.54325" lon="-1.5119">
        <ele>10.711791992188</ele>
        <time>2015-04-09T09:58:29Z</time>
      </trkpt>
      <trkpt lat="43.54327" lon="-1.512">
        <ele>10.711791992188</ele>
        <time>2015-04-09T09:58:43Z</time>
      </trkpt>
      <trkpt lat="43.54328" lon="-1.51215">
        <ele>10.231201171875</ele>
        <time>2015-04-09T09:58:58Z</time>
      </trkpt>
      <trkpt lat="43.54329" lon="-1.51228">
        <ele>9.7506103515625</ele>
        <time>2015-04-09T09:59:12Z</time>
      </trkpt>
      <trkpt lat="43.54327" lon="-1.51244">
        <ele>9.2698974609375</ele>
        <time>2015-04-09T09:59:29Z</time>
      </trkpt>
      <trkpt lat="43.54325" lon="-1.51248">
        <ele>9.2698974609375</ele>
        <time>2015-04-09T09:59:42Z</time>
      </trkpt>
      <trkpt lat="43.54325" lon="-1.51248">
        <ele>8.7891845703125</ele>
        <time>2015-04-09T10:05:06Z</time>
      </trkpt>
      <trkpt lat="43.54324" lon="-1.51247">
        <ele>10.711791992188</ele>
        <time>2015-04-09T10:06:21Z</time>
      </trkpt>
      <trkpt lat="43.54325" lon="-1.51247">
        <ele>9.2698974609375</ele>
        <time>2015-04-09T10:06:45Z</time>
      </trkpt>
      <trkpt lat="43.54324" lon="-1.51247">
        <ele>9.7506103515625</ele>
        <time>2015-04-09T10:07:41Z</time>
      </trkpt>
      <trkpt lat="43.54324" lon="-1.51246">
        <ele>8.7891845703125</ele>
        <time>2015-04-09T10:08:01Z</time>
      </trkpt>
      <trkpt lat="43.54323" lon="-1.51247">
        <ele>10.231201171875</ele>
        <time>2015-04-09T10:08:20Z</time>
      </trkpt>
      <trkpt lat="43.54322" lon="-1.51247">
        <ele>9.2698974609375</ele>
        <time>2015-04-09T10:38:42Z</time>
      </trkpt>
      <trkpt lat="43.54324" lon="-1.51247">
        <ele>9.7506103515625</ele>
        <time>2015-04-09T10:43:08Z</time>
      </trkpt>
      <trkpt lat="43.54324" lon="-1.51248">
        <ele>9.7506103515625</ele>
        <time>2015-04-09T10:43:40Z</time>
      </trkpt>
      <trkpt lat="43.54323" lon="-1.51247">
        <ele>10.231201171875</ele>
        <time>2015-04-09T10:44:12Z</time>
      </trkpt>
      <trkpt lat="43.54322" lon="-1.51246">
        <ele>9.7506103515625</ele>
        <time>2015-04-09T10:44:54Z</time>
      </trkpt>
      <trkpt lat="43.54321" lon="-1.51246">
        <ele>10.231201171875</ele>
        <time>2015-04-09T10:46:04Z</time>
      </trkpt>
      <trkpt lat="43.54321" lon="-1.51246">
        <ele>10.231201171875</ele>
        <time>2015-04-09T10:48:16Z</time>
      </trkpt>
      <trkpt lat="43.54321" lon="-1.51245">
        <ele>10.231201171875</ele>
        <time>2015-04-09T10:49:17Z</time>
      </trkpt>
      <trkpt lat="43.54322" lon="-1.51246">
        <ele>11.192504882812</ele>
        <time>2015-04-09T10:49:54Z</time>
      </trkpt>
      <trkpt lat="43.54321" lon="-1.51245">
        <ele>10.711791992188</ele>
        <time>2015-04-09T10:50:18Z</time>
      </trkpt>
      <trkpt lat="43.54321" lon="-1.51245">
        <ele>10.231201171875</ele>
        <time>2015-04-09T10:51:01Z</time>
      </trkpt>
      <trkpt lat="43.54321" lon="-1.51245">
        <ele>9.7506103515625</ele>
        <time>2015-04-09T10:51:50Z</time>
      </trkpt>
      <trkpt lat="43.54321" lon="-1.51246">
        <ele>9.7506103515625</ele>
        <time>2015-04-09T10:52:04Z</time>
      </trkpt>
      <trkpt lat="43.54321" lon="-1.51245">
        <ele>10.231201171875</ele>
        <time>2015-04-09T10:52:41Z</time>
      </trkpt>
      <trkpt lat="43.54321" lon="-1.51245">
        <ele>9.7506103515625</ele>
        <time>2015-04-09T10:53:07Z</time>
      </trkpt>
      <trkpt lat="43.54321" lon="-1.51245">
        <ele>10.711791992188</ele>
        <time>2015-04-09T10:53:36Z</time>
      </trkpt>
      <trkpt lat="43.54321" lon="-1.51245">
        <ele>12.15380859375</ele>
        <time>2015-04-09T10:55:26Z</time>
      </trkpt>
      <trkpt lat="43.54321" lon="-1.51245">
        <ele>12.15380859375</ele>
        <time>2015-04-09T10:55:59Z</time>
      </trkpt>
      <trkpt lat="43.54321" lon="-1.51244">
        <ele>12.15380859375</ele>
        <time>2015-04-09T10:56:34Z</time>
      </trkpt>
      <trkpt lat="43.54321" lon="-1.51245">
        <ele>11.192504882812</ele>
        <time>2015-04-09T10:56:54Z</time>
      </trkpt>
      <trkpt lat="43.54321" lon="-1.51245">
        <ele>10.711791992188</ele>
        <time>2015-04-09T10:57:34Z</time>
      </trkpt>
      <trkpt lat="43.54321" lon="-1.51245">
        <ele>10.711791992188</ele>
        <time>2015-04-09T10:57:55Z</time>
      </trkpt>
      <trkpt lat="43.54321" lon="-1.51244">
        <ele>10.711791992188</ele>
        <time>2015-04-09T10:59:21Z</time>
      </trkpt>
      <trkpt lat="43.54321" lon="-1.51245">
        <ele>10.231201171875</ele>
        <time>2015-04-09T10:59:42Z</time>
      </trkpt>
      <trkpt lat="43.54321" lon="-1.51245">
        <ele>10.711791992188</ele>
        <time>2015-04-09T11:00:19Z</time>
      </trkpt>
      <trkpt lat="43.54321" lon="-1.51244">
        <ele>11.192504882812</ele>
        <time>2015-04-09T11:01:07Z</time>
      </trkpt>
      <trkpt lat="43.54321" lon="-1.51244">
        <ele>11.192504882812</ele>
        <time>2015-04-09T11:02:32Z</time>
      </trkpt>
      <trkpt lat="43.5432" lon="-1.51243">
        <ele>11.192504882812</ele>
        <time>2015-04-09T11:03:17Z</time>
      </trkpt>
      <trkpt lat="43.5432" lon="-1.51244">
        <ele>11.192504882812</ele>
        <time>2015-04-09T11:03:50Z</time>
      </trkpt>
      <trkpt lat="43.5432" lon="-1.51244">
        <ele>11.192504882812</ele>
        <time>2015-04-09T11:04:18Z</time>
      </trkpt>
      <trkpt lat="43.54319" lon="-1.51239">
        <ele>11.192504882812</ele>
        <time>2015-04-09T11:04:39Z</time>
      </trkpt>
      <trkpt lat="43.54321" lon="-1.51228">
        <ele>11.673217773438</ele>
        <time>2015-04-09T11:04:54Z</time>
      </trkpt>
      <trkpt lat="43.54321" lon="-1.51218">
        <ele>11.673217773438</ele>
        <time>2015-04-09T11:05:07Z</time>
      </trkpt>
      <trkpt lat="43.54322" lon="-1.512">
        <ele>12.15380859375</ele>
        <time>2015-04-09T11:05:27Z</time>
      </trkpt>
      <trkpt lat="43.54323" lon="-1.51185">
        <ele>13.115112304688</ele>
        <time>2015-04-09T11:05:45Z</time>
      </trkpt>
      <trkpt lat="43.54322" lon="-1.51176">
        <ele>12.634399414062</ele>
        <time>2015-04-09T11:05:59Z</time>
      </trkpt>
      <trkpt lat="43.54324" lon="-1.51165">
        <ele>13.115112304688</ele>
        <time>2015-04-09T11:06:14Z</time>
      </trkpt>
      <trkpt lat="43.54324" lon="-1.5115">
        <ele>13.595825195312</ele>
        <time>2015-04-09T11:06:32Z</time>
      </trkpt>
      <trkpt lat="43.54325" lon="-1.5115">
        <ele>13.115112304688</ele>
        <time>2015-04-09T11:07:37Z</time>
      </trkpt>
      <trkpt lat="43.54326" lon="-1.51151">
        <ele>13.115112304688</ele>
        <time>2015-04-09T11:08:07Z</time>
      </trkpt>
      <trkpt lat="43.54322" lon="-1.51138">
        <ele>13.115112304688</ele>
        <time>2015-04-09T11:08:26Z</time>
      </trkpt>
      <trkpt lat="43.54317" lon="-1.51118">
        <ele>13.115112304688</ele>
        <time>2015-04-09T11:08:47Z</time>
      </trkpt>
      <trkpt lat="43.54308" lon="-1.51106">
        <ele>13.595825195312</ele>
        <time>2015-04-09T11:09:05Z</time>
      </trkpt>
      <trkpt lat="43.54306" lon="-1.51106">
        <ele>14.076416015625</ele>
        <time>2015-04-09T11:09:23Z</time>
      </trkpt>
      <trkpt lat="43.54303" lon="-1.51107">
        <ele>14.557006835938</ele>
        <time>2015-04-09T11:09:34Z</time>
      </trkpt>
      <trkpt lat="43.54273" lon="-1.51113">
        <ele>14.076416015625</ele>
        <time>2015-04-09T11:09:52Z</time>
      </trkpt>
      <trkpt lat="43.54236" lon="-1.5111">
        <ele>13.595825195312</ele>
        <time>2015-04-09T11:10:13Z</time>
      </trkpt>
      <trkpt lat="43.542" lon="-1.51105">
        <ele>13.115112304688</ele>
        <time>2015-04-09T11:10:33Z</time>
      </trkpt>
      <trkpt lat="43.5416" lon="-1.51098">
        <ele>13.595825195312</ele>
        <time>2015-04-09T11:10:53Z</time>
      </trkpt>
      <trkpt lat="43.54131" lon="-1.51105">
        <ele>14.076416015625</ele>
        <time>2015-04-09T11:11:10Z</time>
      </trkpt>
      <trkpt lat="43.54104" lon="-1.51122">
        <ele>13.595825195312</ele>
        <time>2015-04-09T11:11:25Z</time>
      </trkpt>
      <trkpt lat="43.54075" lon="-1.51141">
        <ele>13.595825195312</ele>
        <time>2015-04-09T11:11:43Z</time>
      </trkpt>
      <trkpt lat="43.54055" lon="-1.51153">
        <ele>14.076416015625</ele>
        <time>2015-04-09T11:11:59Z</time>
      </trkpt>
      <trkpt lat="43.54031" lon="-1.51168">
        <ele>14.076416015625</ele>
        <time>2015-04-09T11:12:16Z</time>
      </trkpt>
      <trkpt lat="43.54004" lon="-1.51185">
        <ele>13.595825195312</ele>
        <time>2015-04-09T11:12:36Z</time>
      </trkpt>
      <trkpt lat="43.53993" lon="-1.51193">
        <ele>12.634399414062</ele>
        <time>2015-04-09T11:12:52Z</time>
      </trkpt>
      <trkpt lat="43.53986" lon="-1.51198">
        <ele>13.115112304688</ele>
        <time>2015-04-09T11:13:10Z</time>
      </trkpt>
      <trkpt lat="43.53955" lon="-1.51218">
        <ele>13.595825195312</ele>
        <time>2015-04-09T11:13:28Z</time>
      </trkpt>
      <trkpt lat="43.53916" lon="-1.51242">
        <ele>13.115112304688</ele>
        <time>2015-04-09T11:13:49Z</time>
      </trkpt>
      <trkpt lat="43.53884" lon="-1.51263">
        <ele>13.595825195312</ele>
        <time>2015-04-09T11:14:06Z</time>
      </trkpt>
      <trkpt lat="43.53857" lon="-1.51279">
        <ele>14.076416015625</ele>
        <time>2015-04-09T11:14:22Z</time>
      </trkpt>
      <trkpt lat="43.53848" lon="-1.51288">
        <ele>14.076416015625</ele>
        <time>2015-04-09T11:14:30Z</time>
      </trkpt>
      <trkpt lat="43.53838" lon="-1.51284">
        <ele>13.595825195312</ele>
        <time>2015-04-09T11:14:41Z</time>
      </trkpt>
      <trkpt lat="43.53832" lon="-1.5129">
        <ele>13.595825195312</ele>
        <time>2015-04-09T11:14:55Z</time>
      </trkpt>
      <trkpt lat="43.53818" lon="-1.51273">
        <ele>14.557006835938</ele>
        <time>2015-04-09T11:15:09Z</time>
      </trkpt>
      <trkpt lat="43.53808" lon="-1.51233">
        <ele>15.9990234375</ele>
        <time>2015-04-09T11:15:27Z</time>
      </trkpt>
      <trkpt lat="43.53801" lon="-1.51203">
        <ele>16.479736328125</ele>
        <time>2015-04-09T11:15:44Z</time>
      </trkpt>
      <trkpt lat="43.53792" lon="-1.51146">
        <ele>15.037719726562</ele>
        <time>2015-04-09T11:15:57Z</time>
      </trkpt>
      <trkpt lat="43.53777" lon="-1.51077">
        <ele>11.673217773438</ele>
        <time>2015-04-09T11:16:04Z</time>
      </trkpt>
      <trkpt lat="43.53764" lon="-1.51012">
        <ele>8.7891845703125</ele>
        <time>2015-04-09T11:16:10Z</time>
      </trkpt>
      <trkpt lat="43.53742" lon="-1.5092">
        <ele>7.827880859375</ele>
        <time>2015-04-09T11:16:22Z</time>
      </trkpt>
      <trkpt lat="43.53735" lon="-1.50896">
        <ele>11.673217773438</ele>
        <time>2015-04-09T11:16:26Z</time>
      </trkpt>
      <trkpt lat="43.53734" lon="-1.5089">
        <ele>11.192504882812</ele>
        <time>2015-04-09T11:16:27Z</time>
      </trkpt>
      <trkpt lat="43.5373" lon="-1.50872">
        <ele>12.634399414062</ele>
        <time>2015-04-09T11:16:30Z</time>
      </trkpt>
      <trkpt lat="43.53718" lon="-1.50811">
        <ele>15.037719726562</ele>
        <time>2015-04-09T11:16:45Z</time>
      </trkpt>
      <trkpt lat="43.53712" lon="-1.5079">
        <ele>14.557006835938</ele>
        <time>2015-04-09T11:16:56Z</time>
      </trkpt>
      <trkpt lat="43.53707" lon="-1.50762">
        <ele>15.518432617188</ele>
        <time>2015-04-09T11:17:12Z</time>
      </trkpt>
      <trkpt lat="43.53704" lon="-1.50751">
        <ele>15.518432617188</ele>
        <time>2015-04-09T11:17:22Z</time>
      </trkpt>
      <trkpt lat="43.53697" lon="-1.50724">
        <ele>14.557006835938</ele>
        <time>2015-04-09T11:17:32Z</time>
      </trkpt>
      <trkpt lat="43.53689" lon="-1.50687">
        <ele>12.15380859375</ele>
        <time>2015-04-09T11:17:38Z</time>
      </trkpt>
      <trkpt lat="43.53688" lon="-1.50676">
        <ele>11.673217773438</ele>
        <time>2015-04-09T11:17:40Z</time>
      </trkpt>
      <trkpt lat="43.53701" lon="-1.50664">
        <ele>11.673217773438</ele>
        <time>2015-04-09T11:17:45Z</time>
      </trkpt>
      <trkpt lat="43.53736" lon="-1.50663">
        <ele>11.192504882812</ele>
        <time>2015-04-09T11:18:03Z</time>
      </trkpt>
      <trkpt lat="43.53737" lon="-1.50664">
        <ele>11.192504882812</ele>
        <time>2015-04-09T11:18:45Z</time>
      </trkpt>
      <trkpt lat="43.53736" lon="-1.50663">
        <ele>10.711791992188</ele>
        <time>2015-04-09T11:19:38Z</time>
      </trkpt>
      <trkpt lat="43.53735" lon="-1.50665">
        <ele>10.231201171875</ele>
        <time>2015-04-09T11:20:14Z</time>
      </trkpt>
      <trkpt lat="43.53735" lon="-1.50664">
        <ele>10.711791992188</ele>
        <time>2015-04-09T11:20:52Z</time>
      </trkpt>
      <trkpt lat="43.53735" lon="-1.50665">
        <ele>10.711791992188</ele>
        <time>2015-04-09T11:21:55Z</time>
      </trkpt>
      <trkpt lat="43.53733" lon="-1.50672">
        <ele>10.711791992188</ele>
        <time>2015-04-09T11:22:44Z</time>
      </trkpt>
      <trkpt lat="43.53747" lon="-1.50664">
        <ele>11.192504882812</ele>
        <time>2015-04-09T11:23:09Z</time>
      </trkpt>
      <trkpt lat="43.53785" lon="-1.50669">
        <ele>9.2698974609375</ele>
        <time>2015-04-09T11:23:24Z</time>
      </trkpt>
      <trkpt lat="43.53825" lon="-1.50708">
        <ele>8.30859375</ele>
        <time>2015-04-09T11:23:33Z</time>
      </trkpt>
      <trkpt lat="43.53848" lon="-1.50732">
        <ele>8.30859375</ele>
        <time>2015-04-09T11:23:39Z</time>
      </trkpt>
      <trkpt lat="43.53897" lon="-1.50782">
        <ele>8.30859375</ele>
        <time>2015-04-09T11:23:54Z</time>
      </trkpt>
      <trkpt lat="43.53954" lon="-1.50833">
        <ele>8.30859375</ele>
        <time>2015-04-09T11:24:12Z</time>
      </trkpt>
      <trkpt lat="43.54005" lon="-1.50848">
        <ele>10.711791992188</ele>
        <time>2015-04-09T11:24:27Z</time>
      </trkpt>
      <trkpt lat="43.54054" lon="-1.50827">
        <ele>11.673217773438</ele>
        <time>2015-04-09T11:24:42Z</time>
      </trkpt>
      <trkpt lat="43.54109" lon="-1.50754">
        <ele>8.7891845703125</ele>
        <time>2015-04-09T11:25:01Z</time>
      </trkpt>
      <trkpt lat="43.54127" lon="-1.50738">
        <ele>8.30859375</ele>
        <time>2015-04-09T11:25:05Z</time>
      </trkpt>
      <trkpt lat="43.54184" lon="-1.50713">
        <ele>9.7506103515625</ele>
        <time>2015-04-09T11:25:19Z</time>
      </trkpt>
      <trkpt lat="43.54229" lon="-1.50716">
        <ele>11.192504882812</ele>
        <time>2015-04-09T11:25:31Z</time>
      </trkpt>
      <trkpt lat="43.54245" lon="-1.50715">
        <ele>11.192504882812</ele>
        <time>2015-04-09T11:25:35Z</time>
      </trkpt>
      <trkpt lat="43.543" lon="-1.50697">
        <ele>11.192504882812</ele>
        <time>2015-04-09T11:25:49Z</time>
      </trkpt>
      <trkpt lat="43.54348" lon="-1.50723">
        <ele>10.711791992188</ele>
        <time>2015-04-09T11:26:02Z</time>
      </trkpt>
      <trkpt lat="43.54422" lon="-1.5073">
        <ele>12.15380859375</ele>
        <time>2015-04-09T11:26:18Z</time>
      </trkpt>
      <trkpt lat="43.54449" lon="-1.50732">
        <ele>13.115112304688</ele>
        <time>2015-04-09T11:26:25Z</time>
      </trkpt>
      <trkpt lat="43.54474" lon="-1.50719">
        <ele>10.711791992188</ele>
        <time>2015-04-09T11:26:30Z</time>
      </trkpt>
      <trkpt lat="43.54517" lon="-1.50689">
        <ele>9.7506103515625</ele>
        <time>2015-04-09T11:26:39Z</time>
      </trkpt>
      <trkpt lat="43.54534" lon="-1.50673">
        <ele>9.7506103515625</ele>
        <time>2015-04-09T11:26:43Z</time>
      </trkpt>
      <trkpt lat="43.54583" lon="-1.50606">
        <ele>11.673217773438</ele>
        <time>2015-04-09T11:27:00Z</time>
      </trkpt>
      <trkpt lat="43.54623" lon="-1.50554">
        <ele>13.115112304688</ele>
        <time>2015-04-09T11:27:15Z</time>
      </trkpt>
      <trkpt lat="43.54676" lon="-1.50505">
        <ele>12.634399414062</ele>
        <time>2015-04-09T11:27:33Z</time>
      </trkpt>
      <trkpt lat="43.5472" lon="-1.50464">
        <ele>12.634399414062</ele>
        <time>2015-04-09T11:27:47Z</time>
      </trkpt>
      <trkpt lat="43.5477" lon="-1.50415">
        <ele>10.711791992188</ele>
        <time>2015-04-09T11:28:01Z</time>
      </trkpt>
      <trkpt lat="43.54777" lon="-1.50409">
        <ele>11.192504882812</ele>
        <time>2015-04-09T11:28:03Z</time>
      </trkpt>
      <trkpt lat="43.54823" lon="-1.50365">
        <ele>12.634399414062</ele>
        <time>2015-04-09T11:28:16Z</time>
      </trkpt>
      <trkpt lat="43.54875" lon="-1.50313">
        <ele>14.076416015625</ele>
        <time>2015-04-09T11:28:32Z</time>
      </trkpt>
      <trkpt lat="43.54922" lon="-1.50254">
        <ele>12.634399414062</ele>
        <time>2015-04-09T11:28:47Z</time>
      </trkpt>
      <trkpt lat="43.54944" lon="-1.50222">
        <ele>13.595825195312</ele>
        <time>2015-04-09T11:28:55Z</time>
      </trkpt>
      <trkpt lat="43.54993" lon="-1.50157">
        <ele>12.15380859375</ele>
        <time>2015-04-09T11:29:09Z</time>
      </trkpt>
      <trkpt lat="43.55007" lon="-1.50136">
        <ele>11.673217773438</ele>
        <time>2015-04-09T11:29:13Z</time>
      </trkpt>
      <trkpt lat="43.55059" lon="-1.50071">
        <ele>11.192504882812</ele>
        <time>2015-04-09T11:29:28Z</time>
      </trkpt>
      <trkpt lat="43.55102" lon="-1.50037">
        <ele>12.15380859375</ele>
        <time>2015-04-09T11:29:40Z</time>
      </trkpt>
      <trkpt lat="43.5511" lon="-1.50033">
        <ele>11.673217773438</ele>
        <time>2015-04-09T11:29:42Z</time>
      </trkpt>
      <trkpt lat="43.55138" lon="-1.50012">
        <ele>12.15380859375</ele>
        <time>2015-04-09T11:29:49Z</time>
      </trkpt>
      <trkpt lat="43.55186" lon="-1.49982">
        <ele>11.192504882812</ele>
        <time>2015-04-09T11:30:00Z</time>
      </trkpt>
      <trkpt lat="43.55222" lon="-1.4995">
        <ele>10.231201171875</ele>
        <time>2015-04-09T11:30:08Z</time>
      </trkpt>
      <trkpt lat="43.55263" lon="-1.49918">
        <ele>9.7506103515625</ele>
        <time>2015-04-09T11:30:18Z</time>
      </trkpt>
      <trkpt lat="43.55314" lon="-1.49903">
        <ele>10.231201171875</ele>
        <time>2015-04-09T11:30:29Z</time>
      </trkpt>
      <trkpt lat="43.55395" lon="-1.49884">
        <ele>10.711791992188</ele>
        <time>2015-04-09T11:30:47Z</time>
      </trkpt>
      <trkpt lat="43.55476" lon="-1.49852">
        <ele>9.2698974609375</ele>
        <time>2015-04-09T11:31:06Z</time>
      </trkpt>
      <trkpt lat="43.55557" lon="-1.49803">
        <ele>10.711791992188</ele>
        <time>2015-04-09T11:31:26Z</time>
      </trkpt>
      <trkpt lat="43.5562" lon="-1.49764">
        <ele>11.192504882812</ele>
        <time>2015-04-09T11:31:42Z</time>
      </trkpt>
      <trkpt lat="43.557" lon="-1.49714">
        <ele>10.231201171875</ele>
        <time>2015-04-09T11:32:02Z</time>
      </trkpt>
      <trkpt lat="43.55715" lon="-1.49705">
        <ele>10.231201171875</ele>
        <time>2015-04-09T11:32:06Z</time>
      </trkpt>
      <trkpt lat="43.55739" lon="-1.49676">
        <ele>9.7506103515625</ele>
        <time>2015-04-09T11:32:16Z</time>
      </trkpt>
      <trkpt lat="43.55748" lon="-1.49677">
        <ele>9.7506103515625</ele>
        <time>2015-04-09T11:32:22Z</time>
      </trkpt>
      <trkpt lat="43.55751" lon="-1.49681">
        <ele>10.711791992188</ele>
        <time>2015-04-09T11:32:24Z</time>
      </trkpt>
      <trkpt lat="43.55756" lon="-1.49707">
        <ele>10.711791992188</ele>
        <time>2015-04-09T11:32:34Z</time>
      </trkpt>
      <trkpt lat="43.5576" lon="-1.4977">
        <ele>11.673217773438</ele>
        <time>2015-04-09T11:32:47Z</time>
      </trkpt>
      <trkpt lat="43.55783" lon="-1.49804">
        <ele>12.15380859375</ele>
        <time>2015-04-09T11:32:54Z</time>
      </trkpt>
      <trkpt lat="43.55798" lon="-1.49846">
        <ele>12.15380859375</ele>
        <time>2015-04-09T11:33:03Z</time>
      </trkpt>
      <trkpt lat="43.5581" lon="-1.49848">
        <ele>13.115112304688</ele>
        <time>2015-04-09T11:33:08Z</time>
      </trkpt>
      <trkpt lat="43.55836" lon="-1.49841">
        <ele>13.115112304688</ele>
        <time>2015-04-09T11:33:22Z</time>
      </trkpt>
      <trkpt lat="43.55836" lon="-1.49835">
        <ele>12.15380859375</ele>
        <time>2015-04-09T11:33:33Z</time>
      </trkpt>
      <trkpt lat="43.55834" lon="-1.4984">
        <ele>12.634399414062</ele>
        <time>2015-04-09T11:33:47Z</time>
      </trkpt>
      <trkpt lat="43.55834" lon="-1.49841">
        <ele>12.634399414062</ele>
        <time>2015-04-09T11:33:48Z</time>
      </trkpt>
      <trkpt lat="43.55834" lon="-1.4984">
        <ele>13.115112304688</ele>
        <time>2015-04-09T11:34:02Z</time>
      </trkpt>
      <trkpt lat="43.55834" lon="-1.49837">
        <ele>12.634399414062</ele>
        <time>2015-04-09T11:34:15Z</time>
      </trkpt>
      <trkpt lat="43.55835" lon="-1.49838">
        <ele>12.15380859375</ele>
        <time>2015-04-09T11:34:28Z</time>
      </trkpt>
      <trkpt lat="43.55835" lon="-1.49837">
        <ele>12.15380859375</ele>
        <time>2015-04-09T11:35:00Z</time>
      </trkpt>
      <trkpt lat="43.55834" lon="-1.49839">
        <ele>11.673217773438</ele>
        <time>2015-04-09T11:36:47Z</time>
      </trkpt>
      <trkpt lat="43.55832" lon="-1.49841">
        <ele>12.634399414062</ele>
        <time>2015-04-09T11:37:56Z</time>
      </trkpt>
      <trkpt lat="43.55836" lon="-1.49838">
        <ele>13.115112304688</ele>
        <time>2015-04-09T11:38:27Z</time>
      </trkpt>
      <trkpt lat="43.55837" lon="-1.49835">
        <ele>12.634399414062</ele>
        <time>2015-04-09T11:38:56Z</time>
      </trkpt>
      <trkpt lat="43.55837" lon="-1.49836">
        <ele>12.634399414062</ele>
        <time>2015-04-09T11:39:32Z</time>
      </trkpt>
      <trkpt lat="43.55836" lon="-1.49838">
        <ele>13.115112304688</ele>
        <time>2015-04-09T11:40:01Z</time>
      </trkpt>
      <trkpt lat="43.55835" lon="-1.49838">
        <ele>13.595825195312</ele>
        <time>2015-04-09T11:40:30Z</time>
      </trkpt>
      <trkpt lat="43.55835" lon="-1.49837">
        <ele>12.634399414062</ele>
        <time>2015-04-09T11:41:00Z</time>
      </trkpt>
      <trkpt lat="43.55835" lon="-1.4984">
        <ele>13.595825195312</ele>
        <time>2015-04-09T11:41:50Z</time>
      </trkpt>
      <trkpt lat="43.55835" lon="-1.49841">
        <ele>13.115112304688</ele>
        <time>2015-04-09T11:42:31Z</time>
      </trkpt>
      <trkpt lat="43.55835" lon="-1.49843">
        <ele>13.595825195312</ele>
        <time>2015-04-09T11:43:13Z</time>
      </trkpt>
      <trkpt lat="43.55835" lon="-1.49841">
        <ele>13.115112304688</ele>
        <time>2015-04-09T11:44:20Z</time>
      </trkpt>
      <trkpt lat="43.55835" lon="-1.49838">
        <ele>12.634399414062</ele>
        <time>2015-04-09T11:45:27Z</time>
      </trkpt>
      <trkpt lat="43.55834" lon="-1.4984">
        <ele>12.634399414062</ele>
        <time>2015-04-09T11:46:02Z</time>
      </trkpt>
      <trkpt lat="43.55835" lon="-1.49839">
        <ele>13.115112304688</ele>
        <time>2015-04-09T11:46:55Z</time>
      </trkpt>
      <trkpt lat="43.55837" lon="-1.49838">
        <ele>12.634399414062</ele>
        <time>2015-04-09T11:47:23Z</time>
      </trkpt>
      <trkpt lat="43.55837" lon="-1.49835">
        <ele>12.634399414062</ele>
        <time>2015-04-09T11:47:59Z</time>
      </trkpt>
      <trkpt lat="43.55833" lon="-1.49834">
        <ele>13.115112304688</ele>
        <time>2015-04-09T11:49:42Z</time>
      </trkpt>
      <trkpt lat="43.55838" lon="-1.49837">
        <ele>13.595825195312</ele>
        <time>2015-04-09T11:52:23Z</time>
      </trkpt>
      <trkpt lat="43.55838" lon="-1.49839">
        <ele>13.595825195312</ele>
        <time>2015-04-09T11:52:48Z</time>
      </trkpt>
      <trkpt lat="43.55839" lon="-1.49839">
        <ele>14.076416015625</ele>
        <time>2015-04-09T11:53:26Z</time>
      </trkpt>
      <trkpt lat="43.55841" lon="-1.49837">
        <ele>13.115112304688</ele>
        <time>2015-04-09T11:53:54Z</time>
      </trkpt>
      <trkpt lat="43.55837" lon="-1.49839">
        <ele>13.115112304688</ele>
        <time>2015-04-09T11:54:25Z</time>
      </trkpt>
      <trkpt lat="43.55835" lon="-1.49839">
        <ele>13.595825195312</ele>
        <time>2015-04-09T11:55:02Z</time>
      </trkpt>
      <trkpt lat="43.55835" lon="-1.49839">
        <ele>13.595825195312</ele>
        <time>2015-04-09T11:55:30Z</time>
      </trkpt>
      <trkpt lat="43.55836" lon="-1.49837">
        <ele>13.115112304688</ele>
        <time>2015-04-09T11:56:00Z</time>
      </trkpt>
      <trkpt lat="43.55836" lon="-1.49837">
        <ele>13.115112304688</ele>
        <time>2015-04-09T11:56:25Z</time>
      </trkpt>
      <trkpt lat="43.55836" lon="-1.49837">
        <ele>13.115112304688</ele>
        <time>2015-04-09T11:56:52Z</time>
      </trkpt>
      <trkpt lat="43.55835" lon="-1.49839">
        <ele>13.595825195312</ele>
        <time>2015-04-09T11:57:25Z</time>
      </trkpt>
      <trkpt lat="43.55835" lon="-1.49836">
        <ele>13.595825195312</ele>
        <time>2015-04-09T11:58:09Z</time>
      </trkpt>
      <trkpt lat="43.55833" lon="-1.49841">
        <ele>14.076416015625</ele>
        <time>2015-04-09T11:58:45Z</time>
      </trkpt>
      <trkpt lat="43.55837" lon="-1.49841">
        <ele>14.076416015625</ele>
        <time>2015-04-09T11:59:16Z</time>
      </trkpt>
      <trkpt lat="43.55835" lon="-1.49837">
        <ele>14.076416015625</ele>
        <time>2015-04-09T12:01:15Z</time>
      </trkpt>
      <trkpt lat="43.55837" lon="-1.49835">
        <ele>14.076416015625</ele>
        <time>2015-04-09T12:01:41Z</time>
      </trkpt>
      <trkpt lat="43.55836" lon="-1.49839">
        <ele>14.076416015625</ele>
        <time>2015-04-09T12:02:15Z</time>
      </trkpt>
      <trkpt lat="43.55836" lon="-1.49835">
        <ele>14.557006835938</ele>
        <time>2015-04-09T12:02:59Z</time>
      </trkpt>
      <trkpt lat="43.55836" lon="-1.49837">
        <ele>14.076416015625</ele>
        <time>2015-04-09T12:03:27Z</time>
      </trkpt>
      <trkpt lat="43.55836" lon="-1.49837">
        <ele>14.076416015625</ele>
        <time>2015-04-09T12:03:47Z</time>
      </trkpt>
      <trkpt lat="43.55837" lon="-1.49837">
        <ele>14.557006835938</ele>
        <time>2015-04-09T12:04:12Z</time>
      </trkpt>
      <trkpt lat="43.55837" lon="-1.49837">
        <ele>14.557006835938</ele>
        <time>2015-04-09T12:04:34Z</time>
      </trkpt>
      <trkpt lat="43.55836" lon="-1.49836">
        <ele>14.076416015625</ele>
        <time>2015-04-09T12:04:57Z</time>
      </trkpt>
      <trkpt lat="43.55836" lon="-1.49839">
        <ele>15.037719726562</ele>
        <time>2015-04-09T12:05:48Z</time>
      </trkpt>
      <trkpt lat="43.55839" lon="-1.49838">
        <ele>14.076416015625</ele>
        <time>2015-04-09T12:06:48Z</time>
      </trkpt>
      <trkpt lat="43.55838" lon="-1.49838">
        <ele>14.076416015625</ele>
        <time>2015-04-09T12:07:15Z</time>
      </trkpt>
      <trkpt lat="43.55834" lon="-1.4983">
        <ele>14.076416015625</ele>
        <time>2015-04-09T12:08:56Z</time>
      </trkpt>
      <trkpt lat="43.55832" lon="-1.49832">
        <ele>14.557006835938</ele>
        <time>2015-04-09T12:09:33Z</time>
      </trkpt>
      <trkpt lat="43.55833" lon="-1.49835">
        <ele>15.037719726562</ele>
        <time>2015-04-09T12:10:00Z</time>
      </trkpt>
      <trkpt lat="43.55834" lon="-1.49836">
        <ele>15.037719726562</ele>
        <time>2015-04-09T12:10:36Z</time>
      </trkpt>
      <trkpt lat="43.55835" lon="-1.49836">
        <ele>15.037719726562</ele>
        <time>2015-04-09T12:11:02Z</time>
      </trkpt>
      <trkpt lat="43.55837" lon="-1.49838">
        <ele>15.037719726562</ele>
        <time>2015-04-09T12:12:01Z</time>
      </trkpt>
      <trkpt lat="43.55836" lon="-1.49836">
        <ele>15.518432617188</ele>
        <time>2015-04-09T12:15:29Z</time>
      </trkpt>
      <trkpt lat="43.55836" lon="-1.49833">
        <ele>15.9990234375</ele>
        <time>2015-04-09T12:16:56Z</time>
      </trkpt>
      <trkpt lat="43.55836" lon="-1.49834">
        <ele>14.557006835938</ele>
        <time>2015-04-09T12:17:39Z</time>
      </trkpt>
      <trkpt lat="43.55831" lon="-1.49836">
        <ele>15.518432617188</ele>
        <time>2015-04-09T12:20:22Z</time>
      </trkpt>
      <trkpt lat="43.55831" lon="-1.49842">
        <ele>15.037719726562</ele>
        <time>2015-04-09T12:24:56Z</time>
      </trkpt>
      <trkpt lat="43.55832" lon="-1.49845">
        <ele>15.9990234375</ele>
        <time>2015-04-09T12:25:16Z</time>
      </trkpt>
      <trkpt lat="43.55835" lon="-1.49845">
        <ele>15.9990234375</ele>
        <time>2015-04-09T12:25:51Z</time>
      </trkpt>
      <trkpt lat="43.55833" lon="-1.49842">
        <ele>15.9990234375</ele>
        <time>2015-04-09T12:26:05Z</time>
      </trkpt>
      <trkpt lat="43.55825" lon="-1.49841">
        <ele>15.9990234375</ele>
        <time>2015-04-09T12:26:22Z</time>
      </trkpt>
      <trkpt lat="43.55801" lon="-1.49849">
        <ele>14.557006835938</ele>
        <time>2015-04-09T12:26:38Z</time>
      </trkpt>
      <trkpt lat="43.55792" lon="-1.49856">
        <ele>15.037719726562</ele>
        <time>2015-04-09T12:26:42Z</time>
      </trkpt>
      <trkpt lat="43.55784" lon="-1.49851">
        <ele>14.557006835938</ele>
        <time>2015-04-09T12:26:46Z</time>
      </trkpt>
      <trkpt lat="43.55766" lon="-1.49815">
        <ele>14.557006835938</ele>
        <time>2015-04-09T12:27:03Z</time>
      </trkpt>
      <trkpt lat="43.5575" lon="-1.49777">
        <ele>14.076416015625</ele>
        <time>2015-04-09T12:27:19Z</time>
      </trkpt>
      <trkpt lat="43.55749" lon="-1.49739">
        <ele>13.115112304688</ele>
        <time>2015-04-09T12:27:33Z</time>
      </trkpt>
      <trkpt lat="43.55749" lon="-1.49682">
        <ele>12.634399414062</ele>
        <time>2015-04-09T12:27:49Z</time>
      </trkpt>
      <trkpt lat="43.5575" lon="-1.4968">
        <ele>12.634399414062</ele>
        <time>2015-04-09T12:27:50Z</time>
      </trkpt>
      <trkpt lat="43.55774" lon="-1.49665">
        <ele>12.634399414062</ele>
        <time>2015-04-09T12:28:03Z</time>
      </trkpt>
      <trkpt lat="43.55798" lon="-1.49642">
        <ele>13.115112304688</ele>
        <time>2015-04-09T12:28:18Z</time>
      </trkpt>
      <trkpt lat="43.55841" lon="-1.49619">
        <ele>13.595825195312</ele>
        <time>2015-04-09T12:28:35Z</time>
      </trkpt>
      <trkpt lat="43.55873" lon="-1.49592">
        <ele>13.595825195312</ele>
        <time>2015-04-09T12:28:48Z</time>
      </trkpt>
      <trkpt lat="43.55915" lon="-1.49557">
        <ele>13.595825195312</ele>
        <time>2015-04-09T12:29:03Z</time>
      </trkpt>
      <trkpt lat="43.55968" lon="-1.49526">
        <ele>13.115112304688</ele>
        <time>2015-04-09T12:29:20Z</time>
      </trkpt>
      <trkpt lat="43.56012" lon="-1.49499">
        <ele>12.634399414062</ele>
        <time>2015-04-09T12:29:36Z</time>
      </trkpt>
      <trkpt lat="43.56026" lon="-1.49463">
        <ele>12.634399414062</ele>
        <time>2015-04-09T12:29:49Z</time>
      </trkpt>
      <trkpt lat="43.56019" lon="-1.49412">
        <ele>11.673217773438</ele>
        <time>2015-04-09T12:30:02Z</time>
      </trkpt>
      <trkpt lat="43.56003" lon="-1.49381">
        <ele>12.15380859375</ele>
        <time>2015-04-09T12:30:13Z</time>
      </trkpt>
      <trkpt lat="43.55967" lon="-1.49353">
        <ele>12.15380859375</ele>
        <time>2015-04-09T12:30:29Z</time>
      </trkpt>
      <trkpt lat="43.55945" lon="-1.49303">
        <ele>12.15380859375</ele>
        <time>2015-04-09T12:30:44Z</time>
      </trkpt>
      <trkpt lat="43.55922" lon="-1.49236">
        <ele>12.15380859375</ele>
        <time>2015-04-09T12:31:02Z</time>
      </trkpt>
      <trkpt lat="43.55902" lon="-1.49176">
        <ele>12.15380859375</ele>
        <time>2015-04-09T12:31:18Z</time>
      </trkpt>
      <trkpt lat="43.5588" lon="-1.49108">
        <ele>12.15380859375</ele>
        <time>2015-04-09T12:31:36Z</time>
      </trkpt>
      <trkpt lat="43.5585" lon="-1.49021">
        <ele>12.15380859375</ele>
        <time>2015-04-09T12:31:59Z</time>
      </trkpt>
      <trkpt lat="43.55824" lon="-1.48948">
        <ele>12.634399414062</ele>
        <time>2015-04-09T12:32:17Z</time>
      </trkpt>
      <trkpt lat="43.55795" lon="-1.48857">
        <ele>12.634399414062</ele>
        <time>2015-04-09T12:32:39Z</time>
      </trkpt>
      <trkpt lat="43.55773" lon="-1.48793">
        <ele>13.115112304688</ele>
        <time>2015-04-09T12:32:55Z</time>
      </trkpt>
      <trkpt lat="43.55757" lon="-1.48746">
        <ele>13.115112304688</ele>
        <time>2015-04-09T12:33:07Z</time>
      </trkpt>
      <trkpt lat="43.55743" lon="-1.48683">
        <ele>13.115112304688</ele>
        <time>2015-04-09T12:33:22Z</time>
      </trkpt>
      <trkpt lat="43.55738" lon="-1.48627">
        <ele>13.595825195312</ele>
        <time>2015-04-09T12:33:36Z</time>
      </trkpt>
      <trkpt lat="43.55706" lon="-1.48606">
        <ele>14.076416015625</ele>
        <time>2015-04-09T12:33:48Z</time>
      </trkpt>
      <trkpt lat="43.55671" lon="-1.48579">
        <ele>14.557006835938</ele>
        <time>2015-04-09T12:34:02Z</time>
      </trkpt>
      <trkpt lat="43.55632" lon="-1.48559">
        <ele>14.076416015625</ele>
        <time>2015-04-09T12:34:14Z</time>
      </trkpt>
      <trkpt lat="43.55616" lon="-1.48512">
        <ele>14.076416015625</ele>
        <time>2015-04-09T12:34:25Z</time>
      </trkpt>
      <trkpt lat="43.55604" lon="-1.48443">
        <ele>14.076416015625</ele>
        <time>2015-04-09T12:34:41Z</time>
      </trkpt>
      <trkpt lat="43.55588" lon="-1.48404">
        <ele>14.076416015625</ele>
        <time>2015-04-09T12:34:52Z</time>
      </trkpt>
      <trkpt lat="43.55567" lon="-1.48365">
        <ele>14.076416015625</ele>
        <time>2015-04-09T12:35:04Z</time>
      </trkpt>
      <trkpt lat="43.55549" lon="-1.48318">
        <ele>13.595825195312</ele>
        <time>2015-04-09T12:35:16Z</time>
      </trkpt>
      <trkpt lat="43.55539" lon="-1.48269">
        <ele>13.115112304688</ele>
        <time>2015-04-09T12:35:28Z</time>
      </trkpt>
      <trkpt lat="43.5553" lon="-1.48232">
        <ele>13.595825195312</ele>
        <time>2015-04-09T12:35:37Z</time>
      </trkpt>
      <trkpt lat="43.55521" lon="-1.48177">
        <ele>13.595825195312</ele>
        <time>2015-04-09T12:35:50Z</time>
      </trkpt>
      <trkpt lat="43.55504" lon="-1.48113">
        <ele>14.076416015625</ele>
        <time>2015-04-09T12:36:05Z</time>
      </trkpt>
      <trkpt lat="43.55487" lon="-1.48064">
        <ele>14.076416015625</ele>
        <time>2015-04-09T12:36:18Z</time>
      </trkpt>
      <trkpt lat="43.55464" lon="-1.48015">
        <ele>14.076416015625</ele>
        <time>2015-04-09T12:36:31Z</time>
      </trkpt>
      <trkpt lat="43.55441" lon="-1.47961">
        <ele>14.076416015625</ele>
        <time>2015-04-09T12:36:45Z</time>
      </trkpt>
      <trkpt lat="43.55424" lon="-1.47918">
        <ele>13.595825195312</ele>
        <time>2015-04-09T12:36:56Z</time>
      </trkpt>
      <trkpt lat="43.55405" lon="-1.47878">
        <ele>14.076416015625</ele>
        <time>2015-04-09T12:37:06Z</time>
      </trkpt>
      <trkpt lat="43.55386" lon="-1.47829">
        <ele>13.595825195312</ele>
        <time>2015-04-09T12:37:18Z</time>
      </trkpt>
      <trkpt lat="43.55362" lon="-1.47781">
        <ele>14.076416015625</ele>
        <time>2015-04-09T12:37:31Z</time>
      </trkpt>
      <trkpt lat="43.55338" lon="-1.47726">
        <ele>14.076416015625</ele>
        <time>2015-04-09T12:37:45Z</time>
      </trkpt>
      <trkpt lat="43.55312" lon="-1.47691">
        <ele>14.076416015625</ele>
        <time>2015-04-09T12:37:57Z</time>
      </trkpt>
      <trkpt lat="43.55284" lon="-1.47658">
        <ele>14.076416015625</ele>
        <time>2015-04-09T12:38:09Z</time>
      </trkpt>
      <trkpt lat="43.55255" lon="-1.47623">
        <ele>14.076416015625</ele>
        <time>2015-04-09T12:38:23Z</time>
      </trkpt>
      <trkpt lat="43.55239" lon="-1.47601">
        <ele>14.557006835938</ele>
        <time>2015-04-09T12:38:35Z</time>
      </trkpt>
      <trkpt lat="43.55228" lon="-1.47604">
        <ele>14.557006835938</ele>
        <time>2015-04-09T12:38:45Z</time>
      </trkpt>
      <trkpt lat="43.55229" lon="-1.47585">
        <ele>14.076416015625</ele>
        <time>2015-04-09T12:38:51Z</time>
      </trkpt>
      <trkpt lat="43.55238" lon="-1.47496">
        <ele>15.518432617188</ele>
        <time>2015-04-09T12:39:11Z</time>
      </trkpt>
      <trkpt lat="43.55243" lon="-1.47407">
        <ele>16.479736328125</ele>
        <time>2015-04-09T12:39:31Z</time>
      </trkpt>
      <trkpt lat="43.55253" lon="-1.47297">
        <ele>13.595825195312</ele>
        <time>2015-04-09T12:39:49Z</time>
      </trkpt>
      <trkpt lat="43.55293" lon="-1.47229">
        <ele>13.595825195312</ele>
        <time>2015-04-09T12:40:03Z</time>
      </trkpt>
      <trkpt lat="43.55369" lon="-1.47155">
        <ele>13.595825195312</ele>
        <time>2015-04-09T12:40:25Z</time>
      </trkpt>
      <trkpt lat="43.5543" lon="-1.47098">
        <ele>13.595825195312</ele>
        <time>2015-04-09T12:40:43Z</time>
      </trkpt>
      <trkpt lat="43.55506" lon="-1.47026">
        <ele>13.595825195312</ele>
        <time>2015-04-09T12:41:06Z</time>
      </trkpt>
      <trkpt lat="43.55584" lon="-1.46952">
        <ele>13.115112304688</ele>
        <time>2015-04-09T12:41:28Z</time>
      </trkpt>
      <trkpt lat="43.55661" lon="-1.46878">
        <ele>13.115112304688</ele>
        <time>2015-04-09T12:41:51Z</time>
      </trkpt>
      <trkpt lat="43.55743" lon="-1.46801">
        <ele>13.115112304688</ele>
        <time>2015-04-09T12:42:15Z</time>
      </trkpt>
      <trkpt lat="43.55794" lon="-1.46752">
        <ele>13.595825195312</ele>
        <time>2015-04-09T12:42:30Z</time>
      </trkpt>
      <trkpt lat="43.55875" lon="-1.46675">
        <ele>13.595825195312</ele>
        <time>2015-04-09T12:42:53Z</time>
      </trkpt>
      <trkpt lat="43.55941" lon="-1.4661">
        <ele>13.595825195312</ele>
        <time>2015-04-09T12:43:13Z</time>
      </trkpt>
      <trkpt lat="43.55967" lon="-1.46598">
        <ele>15.037719726562</ele>
        <time>2015-04-09T12:43:26Z</time>
      </trkpt>
      <trkpt lat="43.55969" lon="-1.46598">
        <ele>14.557006835938</ele>
        <time>2015-04-09T12:43:27Z</time>
      </trkpt>
      <trkpt lat="43.55973" lon="-1.46614">
        <ele>15.037719726562</ele>
        <time>2015-04-09T12:43:32Z</time>
      </trkpt>
      <trkpt lat="43.55992" lon="-1.46674">
        <ele>15.518432617188</ele>
        <time>2015-04-09T12:43:47Z</time>
      </trkpt>
      <trkpt lat="43.56024" lon="-1.46765">
        <ele>14.557006835938</ele>
        <time>2015-04-09T12:44:04Z</time>
      </trkpt>
      <trkpt lat="43.56045" lon="-1.46813">
        <ele>15.037719726562</ele>
        <time>2015-04-09T12:44:14Z</time>
      </trkpt>
      <trkpt lat="43.5607" lon="-1.46817">
        <ele>14.557006835938</ele>
        <time>2015-04-09T12:44:20Z</time>
      </trkpt>
      <trkpt lat="43.56141" lon="-1.46773">
        <ele>14.557006835938</ele>
        <time>2015-04-09T12:44:38Z</time>
      </trkpt>
      <trkpt lat="43.56216" lon="-1.46725">
        <ele>13.595825195312</ele>
        <time>2015-04-09T12:44:56Z</time>
      </trkpt>
      <trkpt lat="43.56311" lon="-1.46669">
        <ele>14.076416015625</ele>
        <time>2015-04-09T12:45:18Z</time>
      </trkpt>
      <trkpt lat="43.56382" lon="-1.46625">
        <ele>14.557006835938</ele>
        <time>2015-04-09T12:45:36Z</time>
      </trkpt>
      <trkpt lat="43.56449" lon="-1.46585">
        <ele>14.076416015625</ele>
        <time>2015-04-09T12:45:54Z</time>
      </trkpt>
      <trkpt lat="43.56474" lon="-1.46573">
        <ele>13.595825195312</ele>
        <time>2015-04-09T12:46:01Z</time>
      </trkpt>
      <trkpt lat="43.56508" lon="-1.46548">
        <ele>14.076416015625</ele>
        <time>2015-04-09T12:46:13Z</time>
      </trkpt>
      <trkpt lat="43.56549" lon="-1.46523">
        <ele>14.076416015625</ele>
        <time>2015-04-09T12:46:30Z</time>
      </trkpt>
      <trkpt lat="43.56588" lon="-1.46498">
        <ele>14.076416015625</ele>
        <time>2015-04-09T12:46:46Z</time>
      </trkpt>
      <trkpt lat="43.56609" lon="-1.46488">
        <ele>14.076416015625</ele>
        <time>2015-04-09T12:46:55Z</time>
      </trkpt>
      <trkpt lat="43.56627" lon="-1.46525">
        <ele>13.595825195312</ele>
        <time>2015-04-09T12:47:08Z</time>
      </trkpt>
      <trkpt lat="43.5665" lon="-1.46586">
        <ele>14.557006835938</ele>
        <time>2015-04-09T12:47:25Z</time>
      </trkpt>
      <trkpt lat="43.56672" lon="-1.46645">
        <ele>14.557006835938</ele>
        <time>2015-04-09T12:47:40Z</time>
      </trkpt>
      <trkpt lat="43.56696" lon="-1.46712">
        <ele>14.557006835938</ele>
        <time>2015-04-09T12:47:57Z</time>
      </trkpt>
      <trkpt lat="43.56723" lon="-1.46779">
        <ele>15.037719726562</ele>
        <time>2015-04-09T12:48:14Z</time>
      </trkpt>
      <trkpt lat="43.56746" lon="-1.46844">
        <ele>14.076416015625</ele>
        <time>2015-04-09T12:48:29Z</time>
      </trkpt>
      <trkpt lat="43.56771" lon="-1.46908">
        <ele>13.595825195312</ele>
        <time>2015-04-09T12:48:45Z</time>
      </trkpt>
      <trkpt lat="43.56789" lon="-1.46961">
        <ele>13.595825195312</ele>
        <time>2015-04-09T12:48:59Z</time>
      </trkpt>
      <trkpt lat="43.56799" lon="-1.46981">
        <ele>15.037719726562</ele>
        <time>2015-04-09T12:49:07Z</time>
      </trkpt>
      <trkpt lat="43.5681" lon="-1.46972">
        <ele>14.557006835938</ele>
        <time>2015-04-09T12:49:13Z</time>
      </trkpt>
      <trkpt lat="43.56838" lon="-1.46969">
        <ele>14.557006835938</ele>
        <time>2015-04-09T12:49:29Z</time>
      </trkpt>
      <trkpt lat="43.56875" lon="-1.46998">
        <ele>14.076416015625</ele>
        <time>2015-04-09T12:49:43Z</time>
      </trkpt>
      <trkpt lat="43.56913" lon="-1.47033">
        <ele>14.076416015625</ele>
        <time>2015-04-09T12:49:56Z</time>
      </trkpt>
      <trkpt lat="43.56962" lon="-1.47076">
        <ele>14.076416015625</ele>
        <time>2015-04-09T12:50:12Z</time>
      </trkpt>
      <trkpt lat="43.56985" lon="-1.47099">
        <ele>13.115112304688</ele>
        <time>2015-04-09T12:50:23Z</time>
      </trkpt>
      <trkpt lat="43.56992" lon="-1.47108">
        <ele>13.595825195312</ele>
        <time>2015-04-09T12:50:29Z</time>
      </trkpt>
      <trkpt lat="43.56997" lon="-1.4711">
        <ele>13.595825195312</ele>
        <time>2015-04-09T12:50:47Z</time>
      </trkpt>
      <trkpt lat="43.57005" lon="-1.47112">
        <ele>13.595825195312</ele>
        <time>2015-04-09T12:51:30Z</time>
      </trkpt>
      <trkpt lat="43.57011" lon="-1.47118">
        <ele>13.595825195312</ele>
        <time>2015-04-09T12:51:38Z</time>
      </trkpt>
      <trkpt lat="43.57028" lon="-1.47131">
        <ele>14.076416015625</ele>
        <time>2015-04-09T12:51:53Z</time>
      </trkpt>
      <trkpt lat="43.57051" lon="-1.4715">
        <ele>13.115112304688</ele>
        <time>2015-04-09T12:52:11Z</time>
      </trkpt>
      <trkpt lat="43.57083" lon="-1.47175">
        <ele>13.595825195312</ele>
        <time>2015-04-09T12:52:27Z</time>
      </trkpt>
      <trkpt lat="43.57129" lon="-1.47215">
        <ele>13.595825195312</ele>
        <time>2015-04-09T12:52:44Z</time>
      </trkpt>
      <trkpt lat="43.57137" lon="-1.47223">
        <ele>13.595825195312</ele>
        <time>2015-04-09T12:52:47Z</time>
      </trkpt>
      <trkpt lat="43.57155" lon="-1.4721">
        <ele>15.037719726562</ele>
        <time>2015-04-09T12:52:53Z</time>
      </trkpt>
      <trkpt lat="43.57188" lon="-1.47185">
        <ele>14.557006835938</ele>
        <time>2015-04-09T12:53:08Z</time>
      </trkpt>
      <trkpt lat="43.57197" lon="-1.47179">
        <ele>14.557006835938</ele>
        <time>2015-04-09T12:53:12Z</time>
      </trkpt>
      <trkpt lat="43.57207" lon="-1.47141">
        <ele>14.557006835938</ele>
        <time>2015-04-09T12:53:26Z</time>
      </trkpt>
      <trkpt lat="43.57204" lon="-1.47133">
        <ele>14.557006835938</ele>
        <time>2015-04-09T12:53:29Z</time>
      </trkpt>
      <trkpt lat="43.57193" lon="-1.47126">
        <ele>14.557006835938</ele>
        <time>2015-04-09T12:53:35Z</time>
      </trkpt>
      <trkpt lat="43.57174" lon="-1.4708">
        <ele>14.557006835938</ele>
        <time>2015-04-09T12:53:52Z</time>
      </trkpt>
      <trkpt lat="43.57153" lon="-1.47014">
        <ele>14.557006835938</ele>
        <time>2015-04-09T12:54:09Z</time>
      </trkpt>
      <trkpt lat="43.57131" lon="-1.4695">
        <ele>13.595825195312</ele>
        <time>2015-04-09T12:54:25Z</time>
      </trkpt>
      <trkpt lat="43.57104" lon="-1.46869">
        <ele>14.557006835938</ele>
        <time>2015-04-09T12:54:44Z</time>
      </trkpt>
      <trkpt lat="43.57079" lon="-1.46794">
        <ele>14.557006835938</ele>
        <time>2015-04-09T12:55:01Z</time>
      </trkpt>
      <trkpt lat="43.57055" lon="-1.46723">
        <ele>15.037719726562</ele>
        <time>2015-04-09T12:55:18Z</time>
      </trkpt>
      <trkpt lat="43.57048" lon="-1.46702">
        <ele>14.557006835938</ele>
        <time>2015-04-09T12:55:23Z</time>
      </trkpt>
      <trkpt lat="43.57055" lon="-1.46683">
        <ele>14.076416015625</ele>
        <time>2015-04-09T12:55:28Z</time>
      </trkpt>
      <trkpt lat="43.57104" lon="-1.46628">
        <ele>15.037719726562</ele>
        <time>2015-04-09T12:55:44Z</time>
      </trkpt>
      <trkpt lat="43.57157" lon="-1.46579">
        <ele>14.076416015625</ele>
        <time>2015-04-09T12:56:01Z</time>
      </trkpt>
      <trkpt lat="43.57191" lon="-1.4654">
        <ele>14.557006835938</ele>
        <time>2015-04-09T12:56:13Z</time>
      </trkpt>
      <trkpt lat="43.57196" lon="-1.46535">
        <ele>15.518432617188</ele>
        <time>2015-04-09T12:56:15Z</time>
      </trkpt>
      <trkpt lat="43.57224" lon="-1.465">
        <ele>15.9990234375</ele>
        <time>2015-04-09T12:56:26Z</time>
      </trkpt>
      <trkpt lat="43.57231" lon="-1.46495">
        <ele>15.518432617188</ele>
        <time>2015-04-09T12:56:28Z</time>
      </trkpt>
      <trkpt lat="43.57238" lon="-1.46482">
        <ele>15.9990234375</ele>
        <time>2015-04-09T12:56:31Z</time>
      </trkpt>
      <trkpt lat="43.57273" lon="-1.4644">
        <ele>15.9990234375</ele>
        <time>2015-04-09T12:56:43Z</time>
      </trkpt>
      <trkpt lat="43.57309" lon="-1.46407">
        <ele>15.037719726562</ele>
        <time>2015-04-09T12:56:53Z</time>
      </trkpt>
      <trkpt lat="43.57371" lon="-1.46333">
        <ele>15.037719726562</ele>
        <time>2015-04-09T12:57:10Z</time>
      </trkpt>
      <trkpt lat="43.57374" lon="-1.46329">
        <ele>15.037719726562</ele>
        <time>2015-04-09T12:57:11Z</time>
      </trkpt>
      <trkpt lat="43.57382" lon="-1.46322">
        <ele>14.557006835938</ele>
        <time>2015-04-09T12:57:13Z</time>
      </trkpt>
      <trkpt lat="43.57433" lon="-1.46269">
        <ele>15.037719726562</ele>
        <time>2015-04-09T12:57:27Z</time>
      </trkpt>
      <trkpt lat="43.5747" lon="-1.46248">
        <ele>14.557006835938</ele>
        <time>2015-04-09T12:57:36Z</time>
      </trkpt>
      <trkpt lat="43.57484" lon="-1.46235">
        <ele>14.557006835938</ele>
        <time>2015-04-09T12:57:40Z</time>
      </trkpt>
      <trkpt lat="43.57546" lon="-1.46137">
        <ele>14.076416015625</ele>
        <time>2015-04-09T12:58:01Z</time>
      </trkpt>
      <trkpt lat="43.57551" lon="-1.46127">
        <ele>14.076416015625</ele>
        <time>2015-04-09T12:58:03Z</time>
      </trkpt>
      <trkpt lat="43.57556" lon="-1.46116">
        <ele>14.557006835938</ele>
        <time>2015-04-09T12:58:05Z</time>
      </trkpt>
      <trkpt lat="43.57571" lon="-1.46087">
        <ele>14.557006835938</ele>
        <time>2015-04-09T12:58:11Z</time>
      </trkpt>
      <trkpt lat="43.57586" lon="-1.46073">
        <ele>14.557006835938</ele>
        <time>2015-04-09T12:58:15Z</time>
      </trkpt>
      <trkpt lat="43.57661" lon="-1.46048">
        <ele>13.595825195312</ele>
        <time>2015-04-09T12:58:35Z</time>
      </trkpt>
      <trkpt lat="43.57717" lon="-1.46031">
        <ele>13.595825195312</ele>
        <time>2015-04-09T12:58:49Z</time>
      </trkpt>
      <trkpt lat="43.57746" lon="-1.46007">
        <ele>13.595825195312</ele>
        <time>2015-04-09T12:58:57Z</time>
      </trkpt>
      <trkpt lat="43.57757" lon="-1.45988">
        <ele>14.076416015625</ele>
        <time>2015-04-09T12:59:01Z</time>
      </trkpt>
      <trkpt lat="43.57764" lon="-1.45952">
        <ele>13.595825195312</ele>
        <time>2015-04-09T12:59:07Z</time>
      </trkpt>
      <trkpt lat="43.57775" lon="-1.4593">
        <ele>14.076416015625</ele>
        <time>2015-04-09T12:59:11Z</time>
      </trkpt>
      <trkpt lat="43.57806" lon="-1.45863">
        <ele>14.557006835938</ele>
        <time>2015-04-09T12:59:26Z</time>
      </trkpt>
      <trkpt lat="43.57836" lon="-1.4581">
        <ele>13.595825195312</ele>
        <time>2015-04-09T12:59:40Z</time>
      </trkpt>
      <trkpt lat="43.57874" lon="-1.45772">
        <ele>13.595825195312</ele>
        <time>2015-04-09T12:59:53Z</time>
      </trkpt>
      <trkpt lat="43.57892" lon="-1.45764">
        <ele>14.557006835938</ele>
        <time>2015-04-09T12:59:58Z</time>
      </trkpt>
      <trkpt lat="43.57902" lon="-1.45758">
        <ele>13.115112304688</ele>
        <time>2015-04-09T13:00:01Z</time>
      </trkpt>
      <trkpt lat="43.57943" lon="-1.4572">
        <ele>14.557006835938</ele>
        <time>2015-04-09T13:00:15Z</time>
      </trkpt>
      <trkpt lat="43.57992" lon="-1.45699">
        <ele>14.076416015625</ele>
        <time>2015-04-09T13:00:29Z</time>
      </trkpt>
      <trkpt lat="43.58049" lon="-1.45685">
        <ele>14.076416015625</ele>
        <time>2015-04-09T13:00:46Z</time>
      </trkpt>
      <trkpt lat="43.5811" lon="-1.45669">
        <ele>14.557006835938</ele>
        <time>2015-04-09T13:01:04Z</time>
      </trkpt>
      <trkpt lat="43.58151" lon="-1.45663">
        <ele>14.557006835938</ele>
        <time>2015-04-09T13:01:19Z</time>
      </trkpt>
      <trkpt lat="43.58186" lon="-1.4566">
        <ele>14.076416015625</ele>
        <time>2015-04-09T13:01:34Z</time>
      </trkpt>
      <trkpt lat="43.58232" lon="-1.45655">
        <ele>14.076416015625</ele>
        <time>2015-04-09T13:01:50Z</time>
      </trkpt>
      <trkpt lat="43.58275" lon="-1.4565">
        <ele>13.595825195312</ele>
        <time>2015-04-09T13:02:07Z</time>
      </trkpt>
      <trkpt lat="43.58317" lon="-1.45646">
        <ele>14.557006835938</ele>
        <time>2015-04-09T13:02:24Z</time>
      </trkpt>
      <trkpt lat="43.58364" lon="-1.45641">
        <ele>14.076416015625</ele>
        <time>2015-04-09T13:02:41Z</time>
      </trkpt>
      <trkpt lat="43.58413" lon="-1.45633">
        <ele>15.037719726562</ele>
        <time>2015-04-09T13:02:56Z</time>
      </trkpt>
      <trkpt lat="43.58468" lon="-1.45628">
        <ele>15.037719726562</ele>
        <time>2015-04-09T13:03:11Z</time>
      </trkpt>
      <trkpt lat="43.58516" lon="-1.45616">
        <ele>14.076416015625</ele>
        <time>2015-04-09T13:03:24Z</time>
      </trkpt>
      <trkpt lat="43.5853" lon="-1.45583">
        <ele>14.557006835938</ele>
        <time>2015-04-09T13:03:33Z</time>
      </trkpt>
      <trkpt lat="43.58549" lon="-1.45561">
        <ele>13.595825195312</ele>
        <time>2015-04-09T13:03:42Z</time>
      </trkpt>
      <trkpt lat="43.58553" lon="-1.4557">
        <ele>14.076416015625</ele>
        <time>2015-04-09T13:03:45Z</time>
      </trkpt>
      <trkpt lat="43.58564" lon="-1.45593">
        <ele>14.076416015625</ele>
        <time>2015-04-09T13:03:50Z</time>
      </trkpt>
      <trkpt lat="43.58594" lon="-1.45637">
        <ele>14.557006835938</ele>
        <time>2015-04-09T13:04:04Z</time>
      </trkpt>
      <trkpt lat="43.58637" lon="-1.45689">
        <ele>15.037719726562</ele>
        <time>2015-04-09T13:04:20Z</time>
      </trkpt>
      <trkpt lat="43.58682" lon="-1.4574">
        <ele>14.557006835938</ele>
        <time>2015-04-09T13:04:35Z</time>
      </trkpt>
      <trkpt lat="43.58738" lon="-1.45802">
        <ele>13.595825195312</ele>
        <time>2015-04-09T13:04:53Z</time>
      </trkpt>
      <trkpt lat="43.58786" lon="-1.45849">
        <ele>14.076416015625</ele>
        <time>2015-04-09T13:05:08Z</time>
      </trkpt>
      <trkpt lat="43.58815" lon="-1.45877">
        <ele>14.076416015625</ele>
        <time>2015-04-09T13:05:18Z</time>
      </trkpt>
      <trkpt lat="43.58862" lon="-1.45916">
        <ele>14.076416015625</ele>
        <time>2015-04-09T13:05:32Z</time>
      </trkpt>
      <trkpt lat="43.58908" lon="-1.45948">
        <ele>13.595825195312</ele>
        <time>2015-04-09T13:05:46Z</time>
      </trkpt>
      <trkpt lat="43.58959" lon="-1.4598">
        <ele>13.595825195312</ele>
        <time>2015-04-09T13:06:00Z</time>
      </trkpt>
      <trkpt lat="43.59021" lon="-1.46009">
        <ele>13.115112304688</ele>
        <time>2015-04-09T13:06:14Z</time>
      </trkpt>
      <trkpt lat="43.59069" lon="-1.46028">
        <ele>12.634399414062</ele>
        <time>2015-04-09T13:06:26Z</time>
      </trkpt>
      <trkpt lat="43.59116" lon="-1.4604">
        <ele>13.115112304688</ele>
        <time>2015-04-09T13:06:38Z</time>
      </trkpt>
      <trkpt lat="43.59137" lon="-1.46048">
        <ele>13.115112304688</ele>
        <time>2015-04-09T13:06:43Z</time>
      </trkpt>
      <trkpt lat="43.59208" lon="-1.46061">
        <ele>12.634399414062</ele>
        <time>2015-04-09T13:06:58Z</time>
      </trkpt>
      <trkpt lat="43.59266" lon="-1.46066">
        <ele>13.115112304688</ele>
        <time>2015-04-09T13:07:12Z</time>
      </trkpt>
      <trkpt lat="43.5934" lon="-1.46067">
        <ele>12.634399414062</ele>
        <time>2015-04-09T13:07:28Z</time>
      </trkpt>
      <trkpt lat="43.59397" lon="-1.46062">
        <ele>12.15380859375</ele>
        <time>2015-04-09T13:07:42Z</time>
      </trkpt>
      <trkpt lat="43.5945" lon="-1.4606">
        <ele>12.15380859375</ele>
        <time>2015-04-09T13:07:57Z</time>
      </trkpt>
      <trkpt lat="43.59519" lon="-1.46051">
        <ele>12.15380859375</ele>
        <time>2015-04-09T13:08:15Z</time>
      </trkpt>
      <trkpt lat="43.59572" lon="-1.46033">
        <ele>12.15380859375</ele>
        <time>2015-04-09T13:08:30Z</time>
      </trkpt>
      <trkpt lat="43.5959" lon="-1.46017">
        <ele>11.192504882812</ele>
        <time>2015-04-09T13:08:38Z</time>
      </trkpt>
      <trkpt lat="43.59616" lon="-1.46024">
        <ele>11.192504882812</ele>
        <time>2015-04-09T13:08:51Z</time>
      </trkpt>
      <trkpt lat="43.59654" lon="-1.46022">
        <ele>11.673217773438</ele>
        <time>2015-04-09T13:09:04Z</time>
      </trkpt>
      <trkpt lat="43.59684" lon="-1.46019">
        <ele>11.673217773438</ele>
        <time>2015-04-09T13:09:16Z</time>
      </trkpt>
      <trkpt lat="43.59721" lon="-1.4602">
        <ele>11.673217773438</ele>
        <time>2015-04-09T13:09:31Z</time>
      </trkpt>
      <trkpt lat="43.59759" lon="-1.46022">
        <ele>11.192504882812</ele>
        <time>2015-04-09T13:09:46Z</time>
      </trkpt>
      <trkpt lat="43.59807" lon="-1.46021">
        <ele>12.15380859375</ele>
        <time>2015-04-09T13:10:02Z</time>
      </trkpt>
      <trkpt lat="43.59868" lon="-1.46006">
        <ele>12.15380859375</ele>
        <time>2015-04-09T13:10:20Z</time>
      </trkpt>
      <trkpt lat="43.59931" lon="-1.45981">
        <ele>11.673217773438</ele>
        <time>2015-04-09T13:10:39Z</time>
      </trkpt>
      <trkpt lat="43.59987" lon="-1.45952">
        <ele>11.192504882812</ele>
        <time>2015-04-09T13:10:57Z</time>
      </trkpt>
      <trkpt lat="43.60052" lon="-1.45907">
        <ele>11.673217773438</ele>
        <time>2015-04-09T13:11:16Z</time>
      </trkpt>
      <trkpt lat="43.6012" lon="-1.45862">
        <ele>11.192504882812</ele>
        <time>2015-04-09T13:11:34Z</time>
      </trkpt>
      <trkpt lat="43.60187" lon="-1.45791">
        <ele>11.192504882812</ele>
        <time>2015-04-09T13:11:53Z</time>
      </trkpt>
      <trkpt lat="43.60262" lon="-1.45735">
        <ele>10.231201171875</ele>
        <time>2015-04-09T13:12:10Z</time>
      </trkpt>
      <trkpt lat="43.60345" lon="-1.45691">
        <ele>10.711791992188</ele>
        <time>2015-04-09T13:12:28Z</time>
      </trkpt>
      <trkpt lat="43.60415" lon="-1.45672">
        <ele>11.192504882812</ele>
        <time>2015-04-09T13:12:44Z</time>
      </trkpt>
      <trkpt lat="43.60504" lon="-1.45628">
        <ele>11.192504882812</ele>
        <time>2015-04-09T13:13:04Z</time>
      </trkpt>
      <trkpt lat="43.60573" lon="-1.45559">
        <ele>10.231201171875</ele>
        <time>2015-04-09T13:13:22Z</time>
      </trkpt>
      <trkpt lat="43.60609" lon="-1.45516">
        <ele>10.711791992188</ele>
        <time>2015-04-09T13:13:32Z</time>
      </trkpt>
      <trkpt lat="43.60677" lon="-1.45474">
        <ele>10.231201171875</ele>
        <time>2015-04-09T13:13:49Z</time>
      </trkpt>
      <trkpt lat="43.60688" lon="-1.4547">
        <ele>10.231201171875</ele>
        <time>2015-04-09T13:13:52Z</time>
      </trkpt>
      <trkpt lat="43.60701" lon="-1.45467">
        <ele>10.711791992188</ele>
        <time>2015-04-09T13:13:55Z</time>
      </trkpt>
      <trkpt lat="43.60753" lon="-1.45463">
        <ele>10.711791992188</ele>
        <time>2015-04-09T13:14:07Z</time>
      </trkpt>
      <trkpt lat="43.60814" lon="-1.4545">
        <ele>10.231201171875</ele>
        <time>2015-04-09T13:14:19Z</time>
      </trkpt>
      <trkpt lat="43.60892" lon="-1.45431">
        <ele>10.231201171875</ele>
        <time>2015-04-09T13:14:35Z</time>
      </trkpt>
      <trkpt lat="43.60974" lon="-1.4545">
        <ele>9.2698974609375</ele>
        <time>2015-04-09T13:14:51Z</time>
      </trkpt>
      <trkpt lat="43.60996" lon="-1.45462">
        <ele>10.231201171875</ele>
        <time>2015-04-09T13:14:56Z</time>
      </trkpt>
      <trkpt lat="43.61074" lon="-1.45468">
        <ele>9.7506103515625</ele>
        <time>2015-04-09T13:15:12Z</time>
      </trkpt>
      <trkpt lat="43.61121" lon="-1.45449">
        <ele>9.7506103515625</ele>
        <time>2015-04-09T13:15:25Z</time>
      </trkpt>
      <trkpt lat="43.61151" lon="-1.45421">
        <ele>10.231201171875</ele>
        <time>2015-04-09T13:15:32Z</time>
      </trkpt>
      <trkpt lat="43.61213" lon="-1.45346">
        <ele>9.7506103515625</ele>
        <time>2015-04-09T13:15:48Z</time>
      </trkpt>
      <trkpt lat="43.61229" lon="-1.45328">
        <ele>9.2698974609375</ele>
        <time>2015-04-09T13:15:52Z</time>
      </trkpt>
      <trkpt lat="43.61285" lon="-1.45266">
        <ele>10.231201171875</ele>
        <time>2015-04-09T13:16:07Z</time>
      </trkpt>
      <trkpt lat="43.6132" lon="-1.45224">
        <ele>9.7506103515625</ele>
        <time>2015-04-09T13:16:16Z</time>
      </trkpt>
      <trkpt lat="43.61375" lon="-1.45165">
        <ele>9.2698974609375</ele>
        <time>2015-04-09T13:16:30Z</time>
      </trkpt>
      <trkpt lat="43.61397" lon="-1.45139">
        <ele>9.7506103515625</ele>
        <time>2015-04-09T13:16:35Z</time>
      </trkpt>
      <trkpt lat="43.61408" lon="-1.45124">
        <ele>8.7891845703125</ele>
        <time>2015-04-09T13:16:38Z</time>
      </trkpt>
      <trkpt lat="43.61459" lon="-1.45039">
        <ele>9.2698974609375</ele>
        <time>2015-04-09T13:16:53Z</time>
      </trkpt>
      <trkpt lat="43.61465" lon="-1.45026">
        <ele>8.7891845703125</ele>
        <time>2015-04-09T13:16:55Z</time>
      </trkpt>
      <trkpt lat="43.61513" lon="-1.44932">
        <ele>10.231201171875</ele>
        <time>2015-04-09T13:17:10Z</time>
      </trkpt>
      <trkpt lat="43.61516" lon="-1.44924">
        <ele>9.7506103515625</ele>
        <time>2015-04-09T13:17:11Z</time>
      </trkpt>
      <trkpt lat="43.61526" lon="-1.44901">
        <ele>9.7506103515625</ele>
        <time>2015-04-09T13:17:15Z</time>
      </trkpt>
      <trkpt lat="43.61536" lon="-1.4488">
        <ele>9.2698974609375</ele>
        <time>2015-04-09T13:17:19Z</time>
      </trkpt>
      <trkpt lat="43.61541" lon="-1.44863">
        <ele>8.7891845703125</ele>
        <time>2015-04-09T13:17:22Z</time>
      </trkpt>
      <trkpt lat="43.61551" lon="-1.44844">
        <ele>8.7891845703125</ele>
        <time>2015-04-09T13:17:26Z</time>
      </trkpt>
      <trkpt lat="43.6159" lon="-1.44786">
        <ele>8.7891845703125</ele>
        <time>2015-04-09T13:17:40Z</time>
      </trkpt>
      <trkpt lat="43.61642" lon="-1.447">
        <ele>9.2698974609375</ele>
        <time>2015-04-09T13:17:56Z</time>
      </trkpt>
      <trkpt lat="43.61653" lon="-1.44669">
        <ele>8.7891845703125</ele>
        <time>2015-04-09T13:18:01Z</time>
      </trkpt>
      <trkpt lat="43.61661" lon="-1.44646">
        <ele>9.2698974609375</ele>
        <time>2015-04-09T13:18:05Z</time>
      </trkpt>
      <trkpt lat="43.61669" lon="-1.44622">
        <ele>9.2698974609375</ele>
        <time>2015-04-09T13:18:09Z</time>
      </trkpt>
      <trkpt lat="43.61678" lon="-1.44597">
        <ele>8.30859375</ele>
        <time>2015-04-09T13:18:13Z</time>
      </trkpt>
      <trkpt lat="43.61688" lon="-1.44572">
        <ele>8.7891845703125</ele>
        <time>2015-04-09T13:18:17Z</time>
      </trkpt>
      <trkpt lat="43.61712" lon="-1.44538">
        <ele>8.7891845703125</ele>
        <time>2015-04-09T13:18:24Z</time>
      </trkpt>
      <trkpt lat="43.61726" lon="-1.44527">
        <ele>9.7506103515625</ele>
        <time>2015-04-09T13:18:27Z</time>
      </trkpt>
      <trkpt lat="43.61747" lon="-1.44518">
        <ele>9.2698974609375</ele>
        <time>2015-04-09T13:18:31Z</time>
      </trkpt>
      <trkpt lat="43.61779" lon="-1.44513">
        <ele>9.7506103515625</ele>
        <time>2015-04-09T13:18:37Z</time>
      </trkpt>
      <trkpt lat="43.61796" lon="-1.44504">
        <ele>9.7506103515625</ele>
        <time>2015-04-09T13:18:41Z</time>
      </trkpt>
      <trkpt lat="43.61879" lon="-1.44449">
        <ele>10.711791992188</ele>
        <time>2015-04-09T13:18:59Z</time>
      </trkpt>
      <trkpt lat="43.61943" lon="-1.44402">
        <ele>8.7891845703125</ele>
        <time>2015-04-09T13:19:13Z</time>
      </trkpt>
      <trkpt lat="43.61995" lon="-1.44376">
        <ele>9.2698974609375</ele>
        <time>2015-04-09T13:19:25Z</time>
      </trkpt>
      <trkpt lat="43.62058" lon="-1.44342">
        <ele>9.7506103515625</ele>
        <time>2015-04-09T13:19:40Z</time>
      </trkpt>
      <trkpt lat="43.62118" lon="-1.44312">
        <ele>9.2698974609375</ele>
        <time>2015-04-09T13:19:53Z</time>
      </trkpt>
      <trkpt lat="43.6214" lon="-1.44304">
        <ele>8.7891845703125</ele>
        <time>2015-04-09T13:19:58Z</time>
      </trkpt>
      <trkpt lat="43.62174" lon="-1.44291">
        <ele>11.192504882812</ele>
        <time>2015-04-09T13:20:08Z</time>
      </trkpt>
      <trkpt lat="43.62176" lon="-1.4429">
        <ele>11.192504882812</ele>
        <time>2015-04-09T13:20:09Z</time>
      </trkpt>
      <trkpt lat="43.62178" lon="-1.44277">
        <ele>11.192504882812</ele>
        <time>2015-04-09T13:20:14Z</time>
      </trkpt>
      <trkpt lat="43.6217" lon="-1.44209">
        <ele>11.192504882812</ele>
        <time>2015-04-09T13:20:31Z</time>
      </trkpt>
      <trkpt lat="43.62169" lon="-1.44201">
        <ele>11.192504882812</ele>
        <time>2015-04-09T13:20:32Z</time>
      </trkpt>
      <trkpt lat="43.62178" lon="-1.44116">
        <ele>11.192504882812</ele>
        <time>2015-04-09T13:20:45Z</time>
      </trkpt>
      <trkpt lat="43.6217" lon="-1.44036">
        <ele>10.711791992188</ele>
        <time>2015-04-09T13:21:00Z</time>
      </trkpt>
      <trkpt lat="43.62152" lon="-1.43999">
        <ele>10.711791992188</ele>
        <time>2015-04-09T13:21:08Z</time>
      </trkpt>
      <trkpt lat="43.6214" lon="-1.43999">
        <ele>10.711791992188</ele>
        <time>2015-04-09T13:21:12Z</time>
      </trkpt>
      <trkpt lat="43.62128" lon="-1.44006">
        <ele>10.711791992188</ele>
        <time>2015-04-09T13:21:16Z</time>
      </trkpt>
      <trkpt lat="43.62124" lon="-1.44002">
        <ele>11.192504882812</ele>
        <time>2015-04-09T13:21:26Z</time>
      </trkpt>
      <trkpt lat="43.62125" lon="-1.44005">
        <ele>9.7506103515625</ele>
        <time>2015-04-09T13:21:38Z</time>
      </trkpt>
      <trkpt lat="43.62131" lon="-1.44004">
        <ele>9.2698974609375</ele>
        <time>2015-04-09T13:24:11Z</time>
      </trkpt>
      <trkpt lat="43.62126" lon="-1.44007">
        <ele>10.231201171875</ele>
        <time>2015-04-09T13:25:35Z</time>
      </trkpt>
      <trkpt lat="43.62124" lon="-1.44007">
        <ele>12.15380859375</ele>
        <time>2015-04-09T13:25:57Z</time>
      </trkpt>
      <trkpt lat="43.62123" lon="-1.44007">
        <ele>11.192504882812</ele>
        <time>2015-04-09T13:26:05Z</time>
      </trkpt>
    </trkseg>
  </trk>
</gpx>